<?xml version="1.0" encoding="UTF-8" standalone="no" ?>
<gpx xmlns="http://www.topografix.com/GPX/1/1" xmlns:xsi="http://www.w3.org/2001/XMLSchema-instance" xsi:schemaLocation="http://www.topografix.com/GPX/1/1 http://www.topografix.com/GPX/1/1/gpx.xsd" version="1.1" creator="VisuGPX - https://www.visugpx.com">
  <metadata>
    <name>We de Ski Zinal</name>
    <desc><![CDATA[Ski de rando dans le Val d\'Annivier]]></desc>
  </metadata>
  <trk>
    <name><![CDATA[J 1 Omen Rosso]]></name>
    <trkseg>
      <trkpt lat="46.15387" lon="7.62242">
        <ele>2011.215332</ele>
        <time>2013-04-05T10:18:42Z</time>
      </trkpt>
      <trkpt lat="46.15416" lon="7.62186">
        <ele>2011.215332</ele>
        <time>2013-04-05T10:19:43Z</time>
      </trkpt>
      <trkpt lat="46.15425" lon="7.62187">
        <ele>2012.6574707</ele>
        <time>2013-04-05T10:20:31Z</time>
      </trkpt>
      <trkpt lat="46.15444" lon="7.62159">
        <ele>2012.6574707</ele>
        <time>2013-04-05T10:21:25Z</time>
      </trkpt>
      <trkpt lat="46.15474" lon="7.6217">
        <ele>2014.5800781</ele>
        <time>2013-04-05T10:22:22Z</time>
      </trkpt>
      <trkpt lat="46.15618" lon="7.62136">
        <ele>1574.2961426</ele>
        <time>2013-04-05T10:29:29Z</time>
      </trkpt>
      <trkpt lat="46.15624" lon="7.62113">
        <ele>1583.4287109</ele>
        <time>2013-04-05T10:30:31Z</time>
      </trkpt>
      <trkpt lat="46.15781" lon="7.62127">
        <ele>1589.1965332</ele>
        <time>2013-04-05T10:39:02Z</time>
      </trkpt>
      <trkpt lat="46.15976" lon="7.62026">
        <ele>1597.3679199</ele>
        <time>2013-04-05T10:43:02Z</time>
      </trkpt>
      <trkpt lat="46.16008" lon="7.62028">
        <ele>1602.1743164</ele>
        <time>2013-04-05T10:43:51Z</time>
      </trkpt>
      <trkpt lat="46.1602" lon="7.62036">
        <ele>1601.2131348</ele>
        <time>2013-04-05T10:45:30Z</time>
      </trkpt>
      <trkpt lat="46.16015" lon="7.62015">
        <ele>1603.1357422</ele>
        <time>2013-04-05T10:46:07Z</time>
      </trkpt>
      <trkpt lat="46.16037" lon="7.6201">
        <ele>1610.8261719</ele>
        <time>2013-04-05T10:47:42Z</time>
      </trkpt>
      <trkpt lat="46.16065" lon="7.61958">
        <ele>1615.1523438</ele>
        <time>2013-04-05T10:48:49Z</time>
      </trkpt>
      <trkpt lat="46.16133" lon="7.61954">
        <ele>1634.3786621</ele>
        <time>2013-04-05T10:52:35Z</time>
      </trkpt>
      <trkpt lat="46.16154" lon="7.61984">
        <ele>1646.3952637</ele>
        <time>2013-04-05T10:54:19Z</time>
      </trkpt>
      <trkpt lat="46.16192" lon="7.61955">
        <ele>1661.2956543</ele>
        <time>2013-04-05T10:56:30Z</time>
      </trkpt>
      <trkpt lat="46.16207" lon="7.6191">
        <ele>1668.0246582</ele>
        <time>2013-04-05T10:59:59Z</time>
      </trkpt>
      <trkpt lat="46.16242" lon="7.61892">
        <ele>1677.1574707</ele>
        <time>2013-04-05T11:01:57Z</time>
      </trkpt>
      <trkpt lat="46.16277" lon="7.61925">
        <ele>1686.7702637</ele>
        <time>2013-04-05T11:03:19Z</time>
      </trkpt>
      <trkpt lat="46.16307" lon="7.61901">
        <ele>1696.3837891</ele>
        <time>2013-04-05T11:04:52Z</time>
      </trkpt>
      <trkpt lat="46.16311" lon="7.61916">
        <ele>1698.7868652</ele>
        <time>2013-04-05T11:05:14Z</time>
      </trkpt>
      <trkpt lat="46.16307" lon="7.61966">
        <ele>1708.4001465</ele>
        <time>2013-04-05T11:06:33Z</time>
      </trkpt>
      <trkpt lat="46.16271" lon="7.62033">
        <ele>1726.6652832</ele>
        <time>2013-04-05T11:09:11Z</time>
      </trkpt>
      <trkpt lat="46.1626" lon="7.62093">
        <ele>1744.9301758</ele>
        <time>2013-04-05T11:11:41Z</time>
      </trkpt>
      <trkpt lat="46.16275" lon="7.62087">
        <ele>1750.697998</ele>
        <time>2013-04-05T11:12:36Z</time>
      </trkpt>
      <trkpt lat="46.16262" lon="7.62156">
        <ele>1769.4438477</ele>
        <time>2013-04-05T11:15:16Z</time>
      </trkpt>
      <trkpt lat="46.16231" lon="7.62193">
        <ele>1778.576416</ele>
        <time>2013-04-05T11:16:42Z</time>
      </trkpt>
      <trkpt lat="46.16275" lon="7.62208">
        <ele>1793.9575195</ele>
        <time>2013-04-05T11:18:59Z</time>
      </trkpt>
      <trkpt lat="46.16319" lon="7.62171">
        <ele>1804.5319824</ele>
        <time>2013-04-05T11:21:12Z</time>
      </trkpt>
      <trkpt lat="46.16428" lon="7.62081">
        <ele>1814.1450195</ele>
        <time>2013-04-05T11:26:10Z</time>
      </trkpt>
      <trkpt lat="46.16454" lon="7.62082">
        <ele>1821.8356934</ele>
        <time>2013-04-05T11:27:32Z</time>
      </trkpt>
      <trkpt lat="46.16459" lon="7.62116">
        <ele>1836.2556152</ele>
        <time>2013-04-05T11:29:41Z</time>
      </trkpt>
      <trkpt lat="46.16471" lon="7.62132">
        <ele>1841.5427246</ele>
        <time>2013-04-05T11:30:53Z</time>
      </trkpt>
      <trkpt lat="46.16488" lon="7.62122">
        <ele>1847.3105469</ele>
        <time>2013-04-05T11:32:57Z</time>
      </trkpt>
      <trkpt lat="46.16482" lon="7.62154">
        <ele>1850.1945801</ele>
        <time>2013-04-05T11:33:30Z</time>
      </trkpt>
      <trkpt lat="46.16452" lon="7.62172">
        <ele>1858.3657227</ele>
        <time>2013-04-05T11:35:23Z</time>
      </trkpt>
      <trkpt lat="46.16437" lon="7.62196">
        <ele>1864.1335449</ele>
        <time>2013-04-05T11:36:35Z</time>
      </trkpt>
      <trkpt lat="46.16454" lon="7.62172">
        <ele>1867.9787598</ele>
        <time>2013-04-05T11:37:39Z</time>
      </trkpt>
      <trkpt lat="46.16456" lon="7.62188">
        <ele>1877.592041</ele>
        <time>2013-04-05T11:40:01Z</time>
      </trkpt>
      <trkpt lat="46.16505" lon="7.62152">
        <ele>1887.6860352</ele>
        <time>2013-04-05T11:43:42Z</time>
      </trkpt>
      <trkpt lat="46.16519" lon="7.6215">
        <ele>1890.5698242</ele>
        <time>2013-04-05T11:44:04Z</time>
      </trkpt>
      <trkpt lat="46.16523" lon="7.62168">
        <ele>1892.4926758</ele>
        <time>2013-04-05T11:44:23Z</time>
      </trkpt>
      <trkpt lat="46.16482" lon="7.62229">
        <ele>1906.9123535</ele>
        <time>2013-04-05T11:46:38Z</time>
      </trkpt>
      <trkpt lat="46.16499" lon="7.62217">
        <ele>1914.6027832</ele>
        <time>2013-04-05T11:47:50Z</time>
      </trkpt>
      <trkpt lat="46.16503" lon="7.62225">
        <ele>1915.564209</ele>
        <time>2013-04-05T11:48:05Z</time>
      </trkpt>
      <trkpt lat="46.16497" lon="7.62264">
        <ele>1926.6193848</ele>
        <time>2013-04-05T11:49:19Z</time>
      </trkpt>
      <trkpt lat="46.16482" lon="7.62268">
        <ele>1929.0224609</ele>
        <time>2013-04-05T11:49:57Z</time>
      </trkpt>
      <trkpt lat="46.16478" lon="7.6233">
        <ele>1947.2875977</ele>
        <time>2013-04-05T11:53:55Z</time>
      </trkpt>
      <trkpt lat="46.16478" lon="7.6233">
        <ele>1943.9230957</ele>
        <time>2013-04-05T11:53:56Z</time>
      </trkpt>
      <trkpt lat="46.1652" lon="7.62327">
        <ele>1961.2268066</ele>
        <time>2013-04-05T11:57:57Z</time>
      </trkpt>
      <trkpt lat="46.16519" lon="7.62342">
        <ele>1964.1108398</ele>
        <time>2013-04-05T11:58:51Z</time>
      </trkpt>
      <trkpt lat="46.16515" lon="7.62346">
        <ele>1962.6687012</ele>
        <time>2013-04-05T11:59:14Z</time>
      </trkpt>
      <trkpt lat="46.1653" lon="7.62345">
        <ele>1971.3205566</ele>
        <time>2013-04-05T12:00:11Z</time>
      </trkpt>
      <trkpt lat="46.1654" lon="7.6234">
        <ele>1973.2434082</ele>
        <time>2013-04-05T12:00:28Z</time>
      </trkpt>
      <trkpt lat="46.16524" lon="7.62382">
        <ele>1981.4145508</ele>
        <time>2013-04-05T12:01:35Z</time>
      </trkpt>
      <trkpt lat="46.16494" lon="7.62451">
        <ele>1990.0664063</ele>
        <time>2013-04-05T12:03:22Z</time>
      </trkpt>
      <trkpt lat="46.16588" lon="7.62414">
        <ele>2010.2539063</ele>
        <time>2013-04-05T12:31:08Z</time>
      </trkpt>
      <trkpt lat="46.16627" lon="7.62372">
        <ele>2024.6738281</ele>
        <time>2013-04-05T12:32:38Z</time>
      </trkpt>
      <trkpt lat="46.16677" lon="7.62336">
        <ele>2037.1708984</ele>
        <time>2013-04-05T12:34:07Z</time>
      </trkpt>
      <trkpt lat="46.16708" lon="7.62331">
        <ele>2041.0161133</ele>
        <time>2013-04-05T12:34:49Z</time>
      </trkpt>
      <trkpt lat="46.16789" lon="7.62269">
        <ele>2055.9165039</ele>
        <time>2013-04-05T12:37:01Z</time>
      </trkpt>
      <trkpt lat="46.16813" lon="7.62271">
        <ele>2060.2426758</ele>
        <time>2013-04-05T12:37:46Z</time>
      </trkpt>
      <trkpt lat="46.16805" lon="7.62309">
        <ele>2068.4138184</ele>
        <time>2013-04-05T12:39:51Z</time>
      </trkpt>
      <trkpt lat="46.16821" lon="7.62303">
        <ele>2073.220459</ele>
        <time>2013-04-05T12:40:24Z</time>
      </trkpt>
      <trkpt lat="46.16838" lon="7.62315">
        <ele>2080.4304199</ele>
        <time>2013-04-05T12:41:22Z</time>
      </trkpt>
      <trkpt lat="46.16843" lon="7.62343">
        <ele>2094.3693848</ele>
        <time>2013-04-05T12:43:04Z</time>
      </trkpt>
      <trkpt lat="46.16848" lon="7.62344">
        <ele>2095.3308105</ele>
        <time>2013-04-05T12:43:15Z</time>
      </trkpt>
      <trkpt lat="46.16836" lon="7.62368">
        <ele>2101.0986328</ele>
        <time>2013-04-05T12:44:00Z</time>
      </trkpt>
      <trkpt lat="46.16848" lon="7.62366">
        <ele>2105.4245605</ele>
        <time>2013-04-05T12:44:31Z</time>
      </trkpt>
      <trkpt lat="46.16841" lon="7.6238">
        <ele>2108.3085938</ele>
        <time>2013-04-05T12:45:04Z</time>
      </trkpt>
      <trkpt lat="46.16847" lon="7.62379">
        <ele>2110.7119141</ele>
        <time>2013-04-05T12:45:26Z</time>
      </trkpt>
      <trkpt lat="46.16858" lon="7.62379">
        <ele>2114.5571289</ele>
        <time>2013-04-05T12:45:46Z</time>
      </trkpt>
      <trkpt lat="46.1687" lon="7.62376">
        <ele>2116.9604492</ele>
        <time>2013-04-05T12:46:10Z</time>
      </trkpt>
      <trkpt lat="46.16848" lon="7.6241">
        <ele>2125.1315918</ele>
        <time>2013-04-05T12:47:23Z</time>
      </trkpt>
      <trkpt lat="46.16858" lon="7.62413">
        <ele>2131.380127</ele>
        <time>2013-04-05T12:47:57Z</time>
      </trkpt>
      <trkpt lat="46.1685" lon="7.62434">
        <ele>2135.2253418</ele>
        <time>2013-04-05T12:48:29Z</time>
      </trkpt>
      <trkpt lat="46.16868" lon="7.62433">
        <ele>2140.9934082</ele>
        <time>2013-04-05T12:49:19Z</time>
      </trkpt>
      <trkpt lat="46.16863" lon="7.62449">
        <ele>2143.8774414</ele>
        <time>2013-04-05T12:49:40Z</time>
      </trkpt>
      <trkpt lat="46.1687" lon="7.62454">
        <ele>2144.838623</ele>
        <time>2013-04-05T12:49:58Z</time>
      </trkpt>
      <trkpt lat="46.16888" lon="7.62446">
        <ele>2149.6452637</ele>
        <time>2013-04-05T12:51:29Z</time>
      </trkpt>
      <trkpt lat="46.16867" lon="7.6248">
        <ele>2153.9711914</ele>
        <time>2013-04-05T12:53:41Z</time>
      </trkpt>
      <trkpt lat="46.16736" lon="7.62771">
        <ele>2191.9433594</ele>
        <time>2013-04-05T12:59:39Z</time>
      </trkpt>
      <trkpt lat="46.16698" lon="7.62848">
        <ele>2198.1916504</ele>
        <time>2013-04-05T13:01:14Z</time>
      </trkpt>
      <trkpt lat="46.16675" lon="7.62918">
        <ele>2203.9597168</ele>
        <time>2013-04-05T13:02:23Z</time>
      </trkpt>
      <trkpt lat="46.16635" lon="7.6312">
        <ele>2225.5893555</ele>
        <time>2013-04-05T13:08:27Z</time>
      </trkpt>
      <trkpt lat="46.1663" lon="7.63151">
        <ele>2226.5507813</ele>
        <time>2013-04-05T13:08:52Z</time>
      </trkpt>
      <trkpt lat="46.16628" lon="7.63344">
        <ele>2249.6223145</ele>
        <time>2013-04-05T13:12:35Z</time>
      </trkpt>
      <trkpt lat="46.16609" lon="7.6339">
        <ele>2257.3129883</ele>
        <time>2013-04-05T13:13:47Z</time>
      </trkpt>
      <trkpt lat="46.16608" lon="7.6339">
        <ele>2257.3129883</ele>
        <time>2013-04-05T13:14:54Z</time>
      </trkpt>
      <trkpt lat="46.16624" lon="7.63532">
        <ele>2261.638916</ele>
        <time>2013-04-05T13:18:50Z</time>
      </trkpt>
      <trkpt lat="46.1661" lon="7.63667">
        <ele>2265.9645996</ele>
        <time>2013-04-05T13:20:47Z</time>
      </trkpt>
      <trkpt lat="46.16647" lon="7.63834">
        <ele>2271.732666</ele>
        <time>2013-04-05T13:23:08Z</time>
      </trkpt>
      <trkpt lat="46.16641" lon="7.63935">
        <ele>2276.5393066</ele>
        <time>2013-04-05T13:24:36Z</time>
      </trkpt>
      <trkpt lat="46.1666" lon="7.64042">
        <ele>2294.8041992</ele>
        <time>2013-04-05T13:28:14Z</time>
      </trkpt>
      <trkpt lat="46.16661" lon="7.64055">
        <ele>2296.2463379</ele>
        <time>2013-04-05T13:28:31Z</time>
      </trkpt>
      <trkpt lat="46.1665" lon="7.64115">
        <ele>2307.3015137</ele>
        <time>2013-04-05T13:30:12Z</time>
      </trkpt>
      <trkpt lat="46.16651" lon="7.64127">
        <ele>2308.2626953</ele>
        <time>2013-04-05T13:30:23Z</time>
      </trkpt>
      <trkpt lat="46.16665" lon="7.64167">
        <ele>2315.953125</ele>
        <time>2013-04-05T13:31:33Z</time>
      </trkpt>
      <trkpt lat="46.1668" lon="7.64174">
        <ele>2318.3566895</ele>
        <time>2013-04-05T13:31:50Z</time>
      </trkpt>
      <trkpt lat="46.16681" lon="7.64212">
        <ele>2329.4116211</ele>
        <time>2013-04-05T13:33:18Z</time>
      </trkpt>
      <trkpt lat="46.16684" lon="7.64222">
        <ele>2331.8149414</ele>
        <time>2013-04-05T13:33:35Z</time>
      </trkpt>
      <trkpt lat="46.16681" lon="7.6433">
        <ele>2347.1960449</ele>
        <time>2013-04-05T13:36:58Z</time>
      </trkpt>
      <trkpt lat="46.16692" lon="7.64371">
        <ele>2359.2126465</ele>
        <time>2013-04-05T13:38:46Z</time>
      </trkpt>
      <trkpt lat="46.16694" lon="7.6444">
        <ele>2369.7871094</ele>
        <time>2013-04-05T13:40:49Z</time>
      </trkpt>
      <trkpt lat="46.16697" lon="7.64453">
        <ele>2375.0742188</ele>
        <time>2013-04-05T13:41:41Z</time>
      </trkpt>
      <trkpt lat="46.1671" lon="7.64493">
        <ele>2384.2070313</ele>
        <time>2013-04-05T13:43:19Z</time>
      </trkpt>
      <trkpt lat="46.16704" lon="7.64513">
        <ele>2386.6101074</ele>
        <time>2013-04-05T13:43:47Z</time>
      </trkpt>
      <trkpt lat="46.16729" lon="7.64518">
        <ele>2390.9360352</ele>
        <time>2013-04-05T13:44:37Z</time>
      </trkpt>
      <trkpt lat="46.16735" lon="7.64544">
        <ele>2399.1074219</ele>
        <time>2013-04-05T13:45:56Z</time>
      </trkpt>
      <trkpt lat="46.16731" lon="7.64559">
        <ele>2400.5493164</ele>
        <time>2013-04-05T13:46:17Z</time>
      </trkpt>
      <trkpt lat="46.16755" lon="7.64601">
        <ele>2417.8530273</ele>
        <time>2013-04-05T13:51:06Z</time>
      </trkpt>
      <trkpt lat="46.16728" lon="7.64687">
        <ele>2434.1955566</ele>
        <time>2013-04-05T13:54:09Z</time>
      </trkpt>
      <trkpt lat="46.16748" lon="7.64692">
        <ele>2439.0019531</ele>
        <time>2013-04-05T13:54:46Z</time>
      </trkpt>
      <trkpt lat="46.1674" lon="7.64733">
        <ele>2451.9797363</ele>
        <time>2013-04-05T13:56:55Z</time>
      </trkpt>
      <trkpt lat="46.16755" lon="7.64743">
        <ele>2458.2282715</ele>
        <time>2013-04-05T13:58:04Z</time>
      </trkpt>
      <trkpt lat="46.1676" lon="7.64775">
        <ele>2465.4384766</ele>
        <time>2013-04-05T13:59:09Z</time>
      </trkpt>
      <trkpt lat="46.16798" lon="7.64788">
        <ele>2479.8581543</ele>
        <time>2013-04-05T14:01:01Z</time>
      </trkpt>
      <trkpt lat="46.16819" lon="7.6483">
        <ele>2485.1452637</ele>
        <time>2013-04-05T14:01:47Z</time>
      </trkpt>
      <trkpt lat="46.1689" lon="7.64878">
        <ele>2500.0458984</ele>
        <time>2013-04-05T14:04:06Z</time>
      </trkpt>
      <trkpt lat="46.16877" lon="7.64929">
        <ele>2509.1784668</ele>
        <time>2013-04-05T14:05:24Z</time>
      </trkpt>
      <trkpt lat="46.16879" lon="7.64931">
        <ele>2512.0622559</ele>
        <time>2013-04-05T14:05:45Z</time>
      </trkpt>
      <trkpt lat="46.16899" lon="7.64941">
        <ele>2516.8688965</ele>
        <time>2013-04-05T14:06:29Z</time>
      </trkpt>
      <trkpt lat="46.16917" lon="7.64941">
        <ele>2520.7141113</ele>
        <time>2013-04-05T14:07:13Z</time>
      </trkpt>
      <trkpt lat="46.16917" lon="7.6494">
        <ele>2524.0788574</ele>
        <time>2013-04-05T14:11:39Z</time>
      </trkpt>
      <trkpt lat="46.16903" lon="7.64975">
        <ele>2533.2111816</ele>
        <time>2013-04-05T14:13:36Z</time>
      </trkpt>
      <trkpt lat="46.16917" lon="7.6498">
        <ele>2538.0178223</ele>
        <time>2013-04-05T14:14:16Z</time>
      </trkpt>
      <trkpt lat="46.16886" lon="7.65069">
        <ele>2563.9733887</ele>
        <time>2013-04-05T14:18:46Z</time>
      </trkpt>
      <trkpt lat="46.16896" lon="7.65067">
        <ele>2566.8574219</ele>
        <time>2013-04-05T14:19:25Z</time>
      </trkpt>
      <trkpt lat="46.16886" lon="7.65072">
        <ele>2570.2219238</ele>
        <time>2013-04-05T14:20:04Z</time>
      </trkpt>
      <trkpt lat="46.16896" lon="7.6508">
        <ele>2574.5480957</ele>
        <time>2013-04-05T14:20:57Z</time>
      </trkpt>
      <trkpt lat="46.16882" lon="7.65092">
        <ele>2579.3544922</ele>
        <time>2013-04-05T14:22:07Z</time>
      </trkpt>
      <trkpt lat="46.169" lon="7.65105">
        <ele>2584.6418457</ele>
        <time>2013-04-05T14:23:19Z</time>
      </trkpt>
      <trkpt lat="46.16901" lon="7.6511">
        <ele>2590.8903809</ele>
        <time>2013-04-05T14:24:20Z</time>
      </trkpt>
      <trkpt lat="46.16892" lon="7.65126">
        <ele>2595.6970215</ele>
        <time>2013-04-05T14:25:08Z</time>
      </trkpt>
      <trkpt lat="46.16899" lon="7.65131">
        <ele>2600.0229492</ele>
        <time>2013-04-05T14:25:50Z</time>
      </trkpt>
      <trkpt lat="46.1689" lon="7.65153">
        <ele>2604.8291016</ele>
        <time>2013-04-05T14:26:37Z</time>
      </trkpt>
      <trkpt lat="46.16906" lon="7.65153">
        <ele>2612.0395508</ele>
        <time>2013-04-05T14:27:34Z</time>
      </trkpt>
      <trkpt lat="46.16906" lon="7.65178">
        <ele>2620.6914063</ele>
        <time>2013-04-05T14:28:43Z</time>
      </trkpt>
      <trkpt lat="46.16915" lon="7.65176">
        <ele>2624.0561523</ele>
        <time>2013-04-05T14:29:04Z</time>
      </trkpt>
      <trkpt lat="46.16941" lon="7.65205">
        <ele>2633.6689453</ele>
        <time>2013-04-05T14:30:23Z</time>
      </trkpt>
      <trkpt lat="46.16943" lon="7.65211">
        <ele>2634.6303711</ele>
        <time>2013-04-05T14:31:29Z</time>
      </trkpt>
      <trkpt lat="46.16963" lon="7.65218">
        <ele>2638.4755859</ele>
        <time>2013-04-05T14:32:00Z</time>
      </trkpt>
      <trkpt lat="46.16979" lon="7.65248">
        <ele>2646.1665039</ele>
        <time>2013-04-05T14:33:12Z</time>
      </trkpt>
      <trkpt lat="46.16987" lon="7.6528">
        <ele>2650.4921875</ele>
        <time>2013-04-05T14:34:13Z</time>
      </trkpt>
      <trkpt lat="46.17039" lon="7.65326">
        <ele>2668.2763672</ele>
        <time>2013-04-05T14:36:53Z</time>
      </trkpt>
      <trkpt lat="46.17038" lon="7.65382">
        <ele>2682.2158203</ele>
        <time>2013-04-05T14:38:47Z</time>
      </trkpt>
      <trkpt lat="46.17049" lon="7.65382">
        <ele>2684.1381836</ele>
        <time>2013-04-05T14:39:07Z</time>
      </trkpt>
      <trkpt lat="46.1707" lon="7.65439">
        <ele>2693.2709961</ele>
        <time>2013-04-05T14:42:14Z</time>
      </trkpt>
      <trkpt lat="46.17099" lon="7.65479">
        <ele>2698.0771484</ele>
        <time>2013-04-05T14:44:00Z</time>
      </trkpt>
      <trkpt lat="46.1713" lon="7.65475">
        <ele>2707.6904297</ele>
        <time>2013-04-05T14:45:22Z</time>
      </trkpt>
      <trkpt lat="46.17136" lon="7.65546">
        <ele>2724.0332031</ele>
        <time>2013-04-05T14:47:30Z</time>
      </trkpt>
      <trkpt lat="46.17162" lon="7.65529">
        <ele>2735.0878906</ele>
        <time>2013-04-05T14:49:20Z</time>
      </trkpt>
      <trkpt lat="46.17166" lon="7.65558">
        <ele>2743.2592773</ele>
        <time>2013-04-05T14:50:39Z</time>
      </trkpt>
      <trkpt lat="46.17177" lon="7.65546">
        <ele>2748.546875</ele>
        <time>2013-04-05T14:51:33Z</time>
      </trkpt>
      <trkpt lat="46.17178" lon="7.65571">
        <ele>2754.7954102</ele>
        <time>2013-04-05T14:52:49Z</time>
      </trkpt>
      <trkpt lat="46.17202" lon="7.65564">
        <ele>2771.6181641</ele>
        <time>2013-04-05T15:02:10Z</time>
      </trkpt>
      <trkpt lat="46.17209" lon="7.65588">
        <ele>2777.8671875</ele>
        <time>2013-04-05T15:03:50Z</time>
      </trkpt>
      <trkpt lat="46.17235" lon="7.65557">
        <ele>2788.4414063</ele>
        <time>2013-04-05T15:05:22Z</time>
      </trkpt>
      <trkpt lat="46.17241" lon="7.65591">
        <ele>2797.0927734</ele>
        <time>2013-04-05T15:06:40Z</time>
      </trkpt>
      <trkpt lat="46.17255" lon="7.65567">
        <ele>2803.8222656</ele>
        <time>2013-04-05T15:07:43Z</time>
      </trkpt>
      <trkpt lat="46.17253" lon="7.65597">
        <ele>2809.590332</ele>
        <time>2013-04-05T15:08:30Z</time>
      </trkpt>
      <trkpt lat="46.17261" lon="7.6558">
        <ele>2812.9550781</ele>
        <time>2013-04-05T15:09:06Z</time>
      </trkpt>
      <trkpt lat="46.17268" lon="7.65605">
        <ele>2820.1645508</ele>
        <time>2013-04-05T15:10:31Z</time>
      </trkpt>
      <trkpt lat="46.17278" lon="7.65593">
        <ele>2827.3745117</ele>
        <time>2013-04-05T15:12:46Z</time>
      </trkpt>
      <trkpt lat="46.17279" lon="7.65671">
        <ele>2843.2363281</ele>
        <time>2013-04-05T15:15:12Z</time>
      </trkpt>
      <trkpt lat="46.173" lon="7.6565">
        <ele>2849.9658203</ele>
        <time>2013-04-05T15:16:21Z</time>
      </trkpt>
      <trkpt lat="46.17302" lon="7.65677">
        <ele>2855.7333984</ele>
        <time>2013-04-05T15:17:20Z</time>
      </trkpt>
      <trkpt lat="46.17317" lon="7.6566">
        <ele>2861.5014648</ele>
        <time>2013-04-05T15:18:15Z</time>
      </trkpt>
      <trkpt lat="46.1732" lon="7.65705">
        <ele>2872.0761719</ele>
        <time>2013-04-05T15:20:11Z</time>
      </trkpt>
      <trkpt lat="46.1733" lon="7.65726">
        <ele>2871.5957031</ele>
        <time>2013-04-05T15:30:01Z</time>
      </trkpt>
      <trkpt lat="46.17324" lon="7.65755">
        <ele>2874.9599609</ele>
        <time>2013-04-05T15:32:38Z</time>
      </trkpt>
      <trkpt lat="46.17342" lon="7.65744">
        <ele>2879.2861328</ele>
        <time>2013-04-05T15:33:18Z</time>
      </trkpt>
      <trkpt lat="46.17339" lon="7.6577">
        <ele>2885.534668</ele>
        <time>2013-04-05T15:34:07Z</time>
      </trkpt>
      <trkpt lat="46.17357" lon="7.65777">
        <ele>2897.0698242</ele>
        <time>2013-04-05T15:36:09Z</time>
      </trkpt>
      <trkpt lat="46.17361" lon="7.65772">
        <ele>2898.512207</ele>
        <time>2013-04-05T15:36:37Z</time>
      </trkpt>
      <trkpt lat="46.17366" lon="7.65783">
        <ele>2899.4731445</ele>
        <time>2013-04-05T15:36:53Z</time>
      </trkpt>
      <trkpt lat="46.17352" lon="7.65804">
        <ele>2903.3188477</ele>
        <time>2013-04-05T15:38:06Z</time>
      </trkpt>
      <trkpt lat="46.17365" lon="7.65806">
        <ele>2909.0869141</ele>
        <time>2013-04-05T15:39:19Z</time>
      </trkpt>
      <trkpt lat="46.17362" lon="7.65842">
        <ele>2914.3740234</ele>
        <time>2013-04-05T15:40:26Z</time>
      </trkpt>
      <trkpt lat="46.17373" lon="7.65836">
        <ele>2919.1806641</ele>
        <time>2013-04-05T15:41:11Z</time>
      </trkpt>
      <trkpt lat="46.17374" lon="7.65847">
        <ele>2922.0644531</ele>
        <time>2013-04-05T15:41:42Z</time>
      </trkpt>
      <trkpt lat="46.17344" lon="7.6591">
        <ele>2936.965332</ele>
        <time>2013-04-05T15:44:37Z</time>
      </trkpt>
      <trkpt lat="46.17359" lon="7.65918">
        <ele>2942.7329102</ele>
        <time>2013-04-05T15:47:35Z</time>
      </trkpt>
      <trkpt lat="46.17353" lon="7.65937">
        <ele>2946.0976563</ele>
        <time>2013-04-05T15:48:08Z</time>
      </trkpt>
      <trkpt lat="46.17349" lon="7.65951">
        <ele>2948.9814453</ele>
        <time>2013-04-05T15:48:34Z</time>
      </trkpt>
      <trkpt lat="46.17364" lon="7.65952">
        <ele>2954.7495117</ele>
        <time>2013-04-05T15:49:35Z</time>
      </trkpt>
      <trkpt lat="46.17366" lon="7.65957">
        <ele>2956.1914063</ele>
        <time>2013-04-05T15:49:52Z</time>
      </trkpt>
      <trkpt lat="46.17352" lon="7.65995">
        <ele>2967.246582</ele>
        <time>2013-04-05T15:52:02Z</time>
      </trkpt>
      <trkpt lat="46.17378" lon="7.65995">
        <ele>2975.4179688</ele>
        <time>2013-04-05T15:53:23Z</time>
      </trkpt>
      <trkpt lat="46.17369" lon="7.66029">
        <ele>2984.0693359</ele>
        <time>2013-04-05T15:55:01Z</time>
      </trkpt>
      <trkpt lat="46.17389" lon="7.6602">
        <ele>2991.2792969</ele>
        <time>2013-04-05T15:56:22Z</time>
      </trkpt>
      <trkpt lat="46.17393" lon="7.66038">
        <ele>2999.4506836</ele>
        <time>2013-04-05T15:57:54Z</time>
      </trkpt>
      <trkpt lat="46.1742" lon="7.66028">
        <ele>3010.9863281</ele>
        <time>2013-04-05T15:59:46Z</time>
      </trkpt>
      <trkpt lat="46.17436" lon="7.6601">
        <ele>3011.4672852</ele>
        <time>2013-04-05T16:02:06Z</time>
      </trkpt>
      <trkpt lat="46.17446" lon="7.66023">
        <ele>3020.5996094</ele>
        <time>2013-04-05T16:03:22Z</time>
      </trkpt>
      <trkpt lat="46.17433" lon="7.66017">
        <ele>3011.9477539</ele>
        <time>2013-04-05T16:05:48Z</time>
      </trkpt>
      <trkpt lat="46.17439" lon="7.66006">
        <ele>3010.9863281</ele>
        <time>2013-04-05T16:08:18Z</time>
      </trkpt>
      <trkpt lat="46.17454" lon="7.66024">
        <ele>3026.3671875</ele>
        <time>2013-04-05T16:19:40Z</time>
      </trkpt>
      <trkpt lat="46.17488" lon="7.66029">
        <ele>3008.5834961</ele>
        <time>2013-04-05T16:24:41Z</time>
      </trkpt>
      <trkpt lat="46.17555" lon="7.66079">
        <ele>2994.1630859</ele>
        <time>2013-04-05T16:26:57Z</time>
      </trkpt>
      <trkpt lat="46.1756" lon="7.66105">
        <ele>2984.0693359</ele>
        <time>2013-04-05T16:28:12Z</time>
      </trkpt>
      <trkpt lat="46.17536" lon="7.66123">
        <ele>2969.1694336</ele>
        <time>2013-04-05T16:28:52Z</time>
      </trkpt>
      <trkpt lat="46.17545" lon="7.66175">
        <ele>2960.0366211</ele>
        <time>2013-04-05T16:29:14Z</time>
      </trkpt>
      <trkpt lat="46.17525" lon="7.66161">
        <ele>2952.8266602</ele>
        <time>2013-04-05T16:29:23Z</time>
      </trkpt>
      <trkpt lat="46.17526" lon="7.66182">
        <ele>2947.5395508</ele>
        <time>2013-04-05T16:29:31Z</time>
      </trkpt>
      <trkpt lat="46.17506" lon="7.66175">
        <ele>2941.2910156</ele>
        <time>2013-04-05T16:29:47Z</time>
      </trkpt>
      <trkpt lat="46.1751" lon="7.66192">
        <ele>2936.965332</ele>
        <time>2013-04-05T16:30:03Z</time>
      </trkpt>
      <trkpt lat="46.17493" lon="7.66186">
        <ele>2930.7163086</ele>
        <time>2013-04-05T16:30:24Z</time>
      </trkpt>
      <trkpt lat="46.17499" lon="7.66217">
        <ele>2926.3901367</ele>
        <time>2013-04-05T16:30:35Z</time>
      </trkpt>
      <trkpt lat="46.17488" lon="7.66209">
        <ele>2921.1030273</ele>
        <time>2013-04-05T16:30:47Z</time>
      </trkpt>
      <trkpt lat="46.17531" lon="7.66393">
        <ele>2904.2802734</ele>
        <time>2013-04-05T16:33:12Z</time>
      </trkpt>
      <trkpt lat="46.17531" lon="7.66485">
        <ele>2898.9926758</ele>
        <time>2013-04-05T16:34:00Z</time>
      </trkpt>
      <trkpt lat="46.17514" lon="7.66553">
        <ele>2898.03125</ele>
        <time>2013-04-05T16:36:23Z</time>
      </trkpt>
      <trkpt lat="46.17423" lon="7.66558">
        <ele>2880.2470703</ele>
        <time>2013-04-05T16:37:21Z</time>
      </trkpt>
      <trkpt lat="46.17441" lon="7.66672">
        <ele>2863.9047852</ele>
        <time>2013-04-05T16:37:45Z</time>
      </trkpt>
      <trkpt lat="46.17426" lon="7.66696">
        <ele>2858.1367188</ele>
        <time>2013-04-05T16:37:54Z</time>
      </trkpt>
      <trkpt lat="46.17416" lon="7.66698">
        <ele>2854.2915039</ele>
        <time>2013-04-05T16:37:58Z</time>
      </trkpt>
      <trkpt lat="46.17433" lon="7.66811">
        <ele>2843.7172852</ele>
        <time>2013-04-05T16:38:34Z</time>
      </trkpt>
      <trkpt lat="46.1741" lon="7.66856">
        <ele>2837.9492188</ele>
        <time>2013-04-05T16:39:34Z</time>
      </trkpt>
      <trkpt lat="46.17409" lon="7.66893">
        <ele>2831.2197266</ele>
        <time>2013-04-05T16:39:55Z</time>
      </trkpt>
      <trkpt lat="46.17368" lon="7.66991">
        <ele>2801.8994141</ele>
        <time>2013-04-05T16:40:47Z</time>
      </trkpt>
      <trkpt lat="46.1737" lon="7.67038">
        <ele>2793.7285156</ele>
        <time>2013-04-05T16:40:58Z</time>
      </trkpt>
      <trkpt lat="46.17376" lon="7.67027">
        <ele>2789.4023438</ele>
        <time>2013-04-05T16:41:06Z</time>
      </trkpt>
      <trkpt lat="46.17381" lon="7.67054">
        <ele>2782.6733398</ele>
        <time>2013-04-05T16:41:19Z</time>
      </trkpt>
      <trkpt lat="46.17386" lon="7.67041">
        <ele>2778.828125</ele>
        <time>2013-04-05T16:41:23Z</time>
      </trkpt>
      <trkpt lat="46.17398" lon="7.67077">
        <ele>2771.6181641</ele>
        <time>2013-04-05T16:41:44Z</time>
      </trkpt>
      <trkpt lat="46.1743" lon="7.67118">
        <ele>2754.7954102</ele>
        <time>2013-04-05T16:42:18Z</time>
      </trkpt>
      <trkpt lat="46.17437" lon="7.67145">
        <ele>2749.9887695</ele>
        <time>2013-04-05T16:42:21Z</time>
      </trkpt>
      <trkpt lat="46.17472" lon="7.67128">
        <ele>2741.8173828</ele>
        <time>2013-04-05T16:42:30Z</time>
      </trkpt>
      <trkpt lat="46.17492" lon="7.67168">
        <ele>2733.6459961</ele>
        <time>2013-04-05T16:42:38Z</time>
      </trkpt>
      <trkpt lat="46.17487" lon="7.67261">
        <ele>2724.5136719</ele>
        <time>2013-04-05T16:42:57Z</time>
      </trkpt>
      <trkpt lat="46.17468" lon="7.67326">
        <ele>2718.7456055</ele>
        <time>2013-04-05T16:43:54Z</time>
      </trkpt>
      <trkpt lat="46.17492" lon="7.6738">
        <ele>2699.519043</ele>
        <time>2013-04-05T16:44:11Z</time>
      </trkpt>
      <trkpt lat="46.1749" lon="7.67408">
        <ele>2690.8676758</ele>
        <time>2013-04-05T16:44:20Z</time>
      </trkpt>
      <trkpt lat="46.17453" lon="7.67425">
        <ele>2682.2158203</ele>
        <time>2013-04-05T16:44:30Z</time>
      </trkpt>
      <trkpt lat="46.17439" lon="7.67448">
        <ele>2679.8125</ele>
        <time>2013-04-05T16:44:36Z</time>
      </trkpt>
      <trkpt lat="46.17433" lon="7.67477">
        <ele>2675.4863281</ele>
        <time>2013-04-05T16:44:49Z</time>
      </trkpt>
      <trkpt lat="46.17448" lon="7.6752">
        <ele>2658.1826172</ele>
        <time>2013-04-05T16:45:04Z</time>
      </trkpt>
      <trkpt lat="46.17437" lon="7.67549">
        <ele>2653.3759766</ele>
        <time>2013-04-05T16:45:09Z</time>
      </trkpt>
      <trkpt lat="46.17439" lon="7.67569">
        <ele>2645.2050781</ele>
        <time>2013-04-05T16:45:15Z</time>
      </trkpt>
      <trkpt lat="46.17409" lon="7.67636">
        <ele>2634.1494141</ele>
        <time>2013-04-05T16:45:28Z</time>
      </trkpt>
      <trkpt lat="46.17402" lon="7.67649">
        <ele>2629.3432617</ele>
        <time>2013-04-05T16:45:31Z</time>
      </trkpt>
      <trkpt lat="46.17402" lon="7.67654">
        <ele>2630.7851563</ele>
        <time>2013-04-05T16:45:40Z</time>
      </trkpt>
      <trkpt lat="46.17408" lon="7.67668">
        <ele>2628.3818359</ele>
        <time>2013-04-05T16:45:48Z</time>
      </trkpt>
      <trkpt lat="46.17404" lon="7.67689">
        <ele>2625.9785156</ele>
        <time>2013-04-05T16:45:54Z</time>
      </trkpt>
      <trkpt lat="46.17374" lon="7.67736">
        <ele>2619.7299805</ele>
        <time>2013-04-05T16:46:24Z</time>
      </trkpt>
      <trkpt lat="46.17297" lon="7.6779">
        <ele>2609.6357422</ele>
        <time>2013-04-05T16:46:52Z</time>
      </trkpt>
      <trkpt lat="46.17255" lon="7.67845">
        <ele>2605.3100586</ele>
        <time>2013-04-05T16:48:42Z</time>
      </trkpt>
      <trkpt lat="46.17247" lon="7.67917">
        <ele>2594.7355957</ele>
        <time>2013-04-05T16:48:56Z</time>
      </trkpt>
      <trkpt lat="46.17289" lon="7.68004">
        <ele>2574.0673828</ele>
        <time>2013-04-05T16:49:13Z</time>
      </trkpt>
      <trkpt lat="46.17291" lon="7.68038">
        <ele>2569.7412109</ele>
        <time>2013-04-05T16:49:21Z</time>
      </trkpt>
      <trkpt lat="46.17303" lon="7.68054">
        <ele>2561.0895996</ele>
        <time>2013-04-05T16:49:48Z</time>
      </trkpt>
      <trkpt lat="46.173" lon="7.68062">
        <ele>2559.1669922</ele>
        <time>2013-04-05T16:50:01Z</time>
      </trkpt>
      <trkpt lat="46.17312" lon="7.68071">
        <ele>2549.5537109</ele>
        <time>2013-04-05T16:50:07Z</time>
      </trkpt>
      <trkpt lat="46.17311" lon="7.68086">
        <ele>2544.7470703</ele>
        <time>2013-04-05T16:50:10Z</time>
      </trkpt>
      <trkpt lat="46.17253" lon="7.6818">
        <ele>2530.3273926</ele>
        <time>2013-04-05T16:50:51Z</time>
      </trkpt>
      <trkpt lat="46.17239" lon="7.68238">
        <ele>2527.4433594</ele>
        <time>2013-04-05T16:51:24Z</time>
      </trkpt>
      <trkpt lat="46.17216" lon="7.68295">
        <ele>2520.2333984</ele>
        <time>2013-04-05T16:51:39Z</time>
      </trkpt>
      <trkpt lat="46.17168" lon="7.68356">
        <ele>2513.5041504</ele>
        <time>2013-04-05T16:52:22Z</time>
      </trkpt>
      <trkpt lat="46.17179" lon="7.68362">
        <ele>2508.217041</ele>
        <time>2013-04-05T16:54:00Z</time>
      </trkpt>
      <trkpt lat="46.17188" lon="7.68382">
        <ele>2497.6425781</ele>
        <time>2013-04-05T16:54:07Z</time>
      </trkpt>
      <trkpt lat="46.17175" lon="7.68417">
        <ele>2486.5871582</ele>
        <time>2013-04-05T16:54:13Z</time>
      </trkpt>
      <trkpt lat="46.1716" lon="7.6844">
        <ele>2484.6647949</ele>
        <time>2013-04-05T16:54:22Z</time>
      </trkpt>
      <trkpt lat="46.17115" lon="7.68462">
        <ele>2473.1289063</ele>
        <time>2013-04-05T16:54:52Z</time>
      </trkpt>
      <trkpt lat="46.17103" lon="7.6853">
        <ele>2452.9411621</ele>
        <time>2013-04-05T16:55:29Z</time>
      </trkpt>
      <trkpt lat="46.17049" lon="7.68562">
        <ele>2437.5600586</ele>
        <time>2013-04-05T16:55:50Z</time>
      </trkpt>
      <trkpt lat="46.17056" lon="7.68569">
        <ele>2435.6374512</ele>
        <time>2013-04-05T16:55:53Z</time>
      </trkpt>
      <trkpt lat="46.17054" lon="7.68584">
        <ele>2430.8310547</ele>
        <time>2013-04-05T16:55:56Z</time>
      </trkpt>
      <trkpt lat="46.17039" lon="7.68595">
        <ele>2426.0241699</ele>
        <time>2013-04-05T16:56:01Z</time>
      </trkpt>
      <trkpt lat="46.17058" lon="7.68606">
        <ele>2421.6982422</ele>
        <time>2013-04-05T16:56:18Z</time>
      </trkpt>
      <trkpt lat="46.17049" lon="7.68622">
        <ele>2416.8918457</ele>
        <time>2013-04-05T16:56:24Z</time>
      </trkpt>
      <trkpt lat="46.17062" lon="7.6863">
        <ele>2411.6044922</ele>
        <time>2013-04-05T16:56:31Z</time>
      </trkpt>
      <trkpt lat="46.17053" lon="7.68647">
        <ele>2406.7978516</ele>
        <time>2013-04-05T16:56:45Z</time>
      </trkpt>
      <trkpt lat="46.17053" lon="7.68669">
        <ele>2397.1848145</ele>
        <time>2013-04-05T16:57:06Z</time>
      </trkpt>
      <trkpt lat="46.17071" lon="7.6868">
        <ele>2383.2456055</ele>
        <time>2013-04-05T16:57:24Z</time>
      </trkpt>
      <trkpt lat="46.1706" lon="7.6871">
        <ele>2374.59375</ele>
        <time>2013-04-05T16:57:35Z</time>
      </trkpt>
      <trkpt lat="46.17065" lon="7.68712">
        <ele>2374.59375</ele>
        <time>2013-04-05T16:57:37Z</time>
      </trkpt>
      <trkpt lat="46.17065" lon="7.68717">
        <ele>2368.3452148</ele>
        <time>2013-04-05T16:57:39Z</time>
      </trkpt>
      <trkpt lat="46.17062" lon="7.6872">
        <ele>2372.6711426</ele>
        <time>2013-04-05T16:57:40Z</time>
      </trkpt>
      <trkpt lat="46.17051" lon="7.68724">
        <ele>2369.3066406</ele>
        <time>2013-04-05T16:57:58Z</time>
      </trkpt>
      <trkpt lat="46.17062" lon="7.68734">
        <ele>2364.9807129</ele>
        <time>2013-04-05T16:58:04Z</time>
      </trkpt>
      <trkpt lat="46.1702" lon="7.68748">
        <ele>2353.4448242</ele>
        <time>2013-04-05T16:58:29Z</time>
      </trkpt>
      <trkpt lat="46.1704" lon="7.68776">
        <ele>2343.831543</ele>
        <time>2013-04-05T16:58:48Z</time>
      </trkpt>
      <trkpt lat="46.17032" lon="7.68787">
        <ele>2339.5056152</ele>
        <time>2013-04-05T16:58:53Z</time>
      </trkpt>
      <trkpt lat="46.1706" lon="7.68802">
        <ele>2332.7763672</ele>
        <time>2013-04-05T16:59:31Z</time>
      </trkpt>
      <trkpt lat="46.17017" lon="7.68823">
        <ele>2315.953125</ele>
        <time>2013-04-05T17:00:27Z</time>
      </trkpt>
      <trkpt lat="46.1705" lon="7.68866">
        <ele>2289.9978027</ele>
        <time>2013-04-05T17:01:19Z</time>
      </trkpt>
      <trkpt lat="46.17041" lon="7.68888">
        <ele>2279.4230957</ele>
        <time>2013-04-05T17:01:32Z</time>
      </trkpt>
      <trkpt lat="46.16974" lon="7.68916">
        <ele>2257.3129883</ele>
        <time>2013-04-05T17:02:16Z</time>
      </trkpt>
      <trkpt lat="46.16869" lon="7.68933">
        <ele>2218.3793945</ele>
        <time>2013-04-05T17:04:13Z</time>
      </trkpt>
      <trkpt lat="46.16912" lon="7.68973">
        <ele>2201.5563965</ele>
        <time>2013-04-05T17:04:50Z</time>
      </trkpt>
      <trkpt lat="46.16885" lon="7.69054">
        <ele>2195.7885742</ele>
        <time>2013-04-05T17:04:56Z</time>
      </trkpt>
      <trkpt lat="46.16856" lon="7.6903">
        <ele>2191.4626465</ele>
        <time>2013-04-05T17:05:07Z</time>
      </trkpt>
      <trkpt lat="46.16839" lon="7.69029">
        <ele>2186.175293</ele>
        <time>2013-04-05T17:05:12Z</time>
      </trkpt>
      <trkpt lat="46.16725" lon="7.69047">
        <ele>2167.4294434</ele>
        <time>2013-04-05T17:05:40Z</time>
      </trkpt>
      <trkpt lat="46.16683" lon="7.69074">
        <ele>2162.6230469</ele>
        <time>2013-04-05T17:06:04Z</time>
      </trkpt>
      <trkpt lat="46.16683" lon="7.69074">
        <ele>2165.0263672</ele>
        <time>2013-04-05T17:17:49Z</time>
      </trkpt>
      <trkpt lat="46.16652" lon="7.69078">
        <ele>2165.0263672</ele>
        <time>2013-04-05T17:18:00Z</time>
      </trkpt>
      <trkpt lat="46.16652" lon="7.69078">
        <ele>2167.4294434</ele>
        <time>2013-04-05T17:18:47Z</time>
      </trkpt>
      <trkpt lat="46.16599" lon="7.69066">
        <ele>2174.1589355</ele>
        <time>2013-04-05T17:19:45Z</time>
      </trkpt>
      <trkpt lat="46.16491" lon="7.69097">
        <ele>2176.081543</ele>
        <time>2013-04-05T17:20:56Z</time>
      </trkpt>
      <trkpt lat="46.16453" lon="7.69106">
        <ele>2173.1977539</ele>
        <time>2013-04-05T17:21:22Z</time>
      </trkpt>
      <trkpt lat="46.16429" lon="7.69138">
        <ele>2172.2363281</ele>
        <time>2013-04-05T17:21:44Z</time>
      </trkpt>
      <trkpt lat="46.16384" lon="7.69275">
        <ele>2176.081543</ele>
        <time>2013-04-05T17:23:14Z</time>
      </trkpt>
      <trkpt lat="46.16336" lon="7.69267">
        <ele>2187.6171875</ele>
        <time>2013-04-05T17:24:32Z</time>
      </trkpt>
      <trkpt lat="46.16301" lon="7.69296">
        <ele>2198.6723633</ele>
        <time>2013-04-05T17:25:43Z</time>
      </trkpt>
      <trkpt lat="46.16244" lon="7.69355">
        <ele>2207.3244629</ele>
        <time>2013-04-05T17:27:03Z</time>
      </trkpt>
      <trkpt lat="46.16207" lon="7.69421">
        <ele>2215.9760742</ele>
        <time>2013-04-05T17:28:44Z</time>
      </trkpt>
      <trkpt lat="46.16108" lon="7.69459">
        <ele>2237.605957</ele>
        <time>2013-04-05T17:31:23Z</time>
      </trkpt>
      <trkpt lat="46.16058" lon="7.69509">
        <ele>2244.3349609</ele>
        <time>2013-04-05T17:32:38Z</time>
      </trkpt>
      <trkpt lat="46.16043" lon="7.69503">
        <ele>2247.2189941</ele>
        <time>2013-04-05T17:33:03Z</time>
      </trkpt>
      <trkpt lat="46.16052" lon="7.69525">
        <ele>2250.5834961</ele>
        <time>2013-04-05T17:33:28Z</time>
      </trkpt>
      <trkpt lat="46.16019" lon="7.69522">
        <ele>2252.5063477</ele>
        <time>2013-04-05T17:33:46Z</time>
      </trkpt>
      <trkpt lat="46.16016" lon="7.69539">
        <ele>2258.7548828</ele>
        <time>2013-04-05T17:34:33Z</time>
      </trkpt>
      <trkpt lat="46.16" lon="7.69516">
        <ele>2261.638916</ele>
        <time>2013-04-05T17:34:58Z</time>
      </trkpt>
      <trkpt lat="46.15927" lon="7.69515">
        <ele>2272.6940918</ele>
        <time>2013-04-05T17:36:44Z</time>
      </trkpt>
      <trkpt lat="46.15925" lon="7.69538">
        <ele>2275.097168</ele>
        <time>2013-04-05T17:37:06Z</time>
      </trkpt>
      <trkpt lat="46.1585" lon="7.69527">
        <ele>2282.7875977</ele>
        <time>2013-04-05T17:38:34Z</time>
      </trkpt>
      <trkpt lat="46.15844" lon="7.69507">
        <ele>2289.036377</ele>
        <time>2013-04-05T17:39:19Z</time>
      </trkpt>
      <trkpt lat="46.15867" lon="7.6957">
        <ele>2298.6494141</ele>
        <time>2013-04-05T17:40:36Z</time>
      </trkpt>
      <trkpt lat="46.15832" lon="7.69586">
        <ele>2302.9755859</ele>
        <time>2013-04-05T17:41:07Z</time>
      </trkpt>
      <trkpt lat="46.15843" lon="7.69617">
        <ele>2308.7434082</ele>
        <time>2013-04-05T17:41:49Z</time>
      </trkpt>
      <trkpt lat="46.15841" lon="7.69657">
        <ele>2314.0305176</ele>
        <time>2013-04-05T17:42:38Z</time>
      </trkpt>
      <trkpt lat="46.15799" lon="7.69666">
        <ele>2315.4726563</ele>
        <time>2013-04-05T17:42:56Z</time>
      </trkpt>
      <trkpt lat="46.15811" lon="7.69669">
        <ele>2316.434082</ele>
        <time>2013-04-05T17:43:12Z</time>
      </trkpt>
      <trkpt lat="46.15805" lon="7.69676">
        <ele>2317.3952637</ele>
        <time>2013-04-05T17:43:27Z</time>
      </trkpt>
      <trkpt lat="46.15797" lon="7.69688">
        <ele>2318.3566895</ele>
        <time>2013-04-05T17:43:41Z</time>
      </trkpt>
      <trkpt lat="46.15771" lon="7.69702">
        <ele>2319.798584</ele>
        <time>2013-04-05T17:44:14Z</time>
      </trkpt>
      <trkpt lat="46.15738" lon="7.69748">
        <ele>2323.6437988</ele>
        <time>2013-04-05T17:45:14Z</time>
      </trkpt>
      <trkpt lat="46.15735" lon="7.69765">
        <ele>2327.0085449</ele>
        <time>2013-04-05T17:46:15Z</time>
      </trkpt>
      <trkpt lat="46.15747" lon="7.69767">
        <ele>2330.3730469</ele>
        <time>2013-04-05T17:46:44Z</time>
      </trkpt>
      <trkpt lat="46.15738" lon="7.69782">
        <ele>2333.2570801</ele>
        <time>2013-04-05T17:47:08Z</time>
      </trkpt>
      <trkpt lat="46.15721" lon="7.69815">
        <ele>2339.0249023</ele>
        <time>2013-04-05T17:47:50Z</time>
      </trkpt>
      <trkpt lat="46.15727" lon="7.6986">
        <ele>2343.831543</ele>
        <time>2013-04-05T17:48:35Z</time>
      </trkpt>
      <trkpt lat="46.15691" lon="7.69897">
        <ele>2352.4833984</ele>
        <time>2013-04-05T17:49:48Z</time>
      </trkpt>
      <trkpt lat="46.15702" lon="7.69918">
        <ele>2354.8867188</ele>
        <time>2013-04-05T17:50:07Z</time>
      </trkpt>
      <trkpt lat="46.15688" lon="7.69923">
        <ele>2358.2512207</ele>
        <time>2013-04-05T17:50:29Z</time>
      </trkpt>
      <trkpt lat="46.15643" lon="7.70001">
        <ele>2378.4389648</ele>
        <time>2013-04-05T17:53:38Z</time>
      </trkpt>
      <trkpt lat="46.15615" lon="7.70023">
        <ele>2384.6877441</ele>
        <time>2013-04-05T17:54:31Z</time>
      </trkpt>
      <trkpt lat="46.15606" lon="7.70068">
        <ele>2396.7041016</ele>
        <time>2013-04-05T17:56:10Z</time>
      </trkpt>
      <trkpt lat="46.1561" lon="7.70101">
        <ele>2403.4333496</ele>
        <time>2013-04-05T17:57:02Z</time>
      </trkpt>
      <trkpt lat="46.15586" lon="7.70123">
        <ele>2410.6430664</ele>
        <time>2013-04-05T17:58:19Z</time>
      </trkpt>
      <trkpt lat="46.15624" lon="7.70114">
        <ele>2420.7370605</ele>
        <time>2013-04-05T18:00:08Z</time>
      </trkpt>
      <trkpt lat="46.15624" lon="7.70143">
        <ele>2426.5048828</ele>
        <time>2013-04-05T18:01:09Z</time>
      </trkpt>
      <trkpt lat="46.15635" lon="7.70137">
        <ele>2429.8696289</ele>
        <time>2013-04-05T18:01:36Z</time>
      </trkpt>
      <trkpt lat="46.15776" lon="7.70119">
        <ele>2474.5708008</ele>
        <time>2013-04-05T18:09:52Z</time>
      </trkpt>
      <trkpt lat="46.15894" lon="7.70112">
        <ele>2498.6037598</ele>
        <time>2013-04-05T18:13:22Z</time>
      </trkpt>
      <trkpt lat="46.15934" lon="7.70069">
        <ele>2503.8911133</ele>
        <time>2013-04-05T18:14:17Z</time>
      </trkpt>
      <trkpt lat="46.15948" lon="7.70042">
        <ele>2504.371582</ele>
        <time>2013-04-05T18:14:52Z</time>
      </trkpt>
      <trkpt lat="46.15971" lon="7.7005">
        <ele>2505.3330078</ele>
        <time>2013-04-05T18:15:21Z</time>
      </trkpt>
      <trkpt lat="46.15994" lon="7.69974">
        <ele>2509.6589355</ele>
        <time>2013-04-05T18:16:22Z</time>
      </trkpt>
      <trkpt lat="46.16014" lon="7.69977">
        <ele>2510.1396484</ele>
        <time>2013-04-05T18:16:57Z</time>
      </trkpt>
      <trkpt lat="46.16015" lon="7.69939">
        <ele>2506.2941895</ele>
        <time>2013-04-05T18:20:13Z</time>
      </trkpt>
      <trkpt lat="46.15997" lon="7.6996">
        <ele>2506.2941895</ele>
        <time>2013-04-05T18:21:06Z</time>
      </trkpt>
      <trkpt lat="46.15999" lon="7.69969">
        <ele>2505.8134766</ele>
        <time>2013-04-05T18:21:25Z</time>
      </trkpt>
      <trkpt lat="46.16026" lon="7.69958">
        <ele>2505.3330078</ele>
        <time>2013-04-05T18:22:03Z</time>
      </trkpt>
      <trkpt lat="46.16024" lon="7.69992">
        <ele>2505.3330078</ele>
        <time>2013-04-05T18:22:21Z</time>
      </trkpt>
      <trkpt lat="46.15959" lon="7.69936">
        <ele>2504.8522949</ele>
        <time>2013-04-05T18:22:30Z</time>
      </trkpt>
      <trkpt lat="46.15958" lon="7.70048">
        <ele>2505.3330078</ele>
        <time>2013-04-05T18:22:33Z</time>
      </trkpt>
      <trkpt lat="46.15939" lon="7.7008">
        <ele>2505.8134766</ele>
        <time>2013-04-05T18:22:38Z</time>
      </trkpt>
      <trkpt lat="46.15887" lon="7.70145">
        <ele>2505.3330078</ele>
        <time>2013-04-05T18:22:47Z</time>
      </trkpt>
      <trkpt lat="46.15871" lon="7.70189">
        <ele>2505.8134766</ele>
        <time>2013-04-05T18:22:53Z</time>
      </trkpt>
      <trkpt lat="46.15845" lon="7.70196">
        <ele>2504.371582</ele>
        <time>2013-04-05T18:22:56Z</time>
      </trkpt>
    </trkseg>
  </trk>
  <trk>
    <name><![CDATA[J 2 Brunegghorn]]></name>
    <trkseg>
      <trkpt lat="46.16054" lon="7.70165">
        <ele>2504.8522949</ele>
        <time>2013-04-06T06:04:04Z</time>
      </trkpt>
      <trkpt lat="46.16007" lon="7.69978">
        <ele>2504.8522949</ele>
        <time>2013-04-06T06:04:47Z</time>
      </trkpt>
      <trkpt lat="46.16001" lon="7.69973">
        <ele>2501.487793</ele>
        <time>2013-04-06T06:05:46Z</time>
      </trkpt>
      <trkpt lat="46.16" lon="7.69974">
        <ele>2482.2614746</ele>
        <time>2013-04-06T06:06:16Z</time>
      </trkpt>
      <trkpt lat="46.15999" lon="7.69967">
        <ele>2478.4162598</ele>
        <time>2013-04-06T06:07:15Z</time>
      </trkpt>
      <trkpt lat="46.15993" lon="7.69965">
        <ele>2476.0129395</ele>
        <time>2013-04-06T06:07:59Z</time>
      </trkpt>
      <trkpt lat="46.15941" lon="7.70075">
        <ele>2470.7255859</ele>
        <time>2013-04-06T06:08:46Z</time>
      </trkpt>
      <trkpt lat="46.15895" lon="7.70045">
        <ele>2471.2060547</ele>
        <time>2013-04-06T06:08:59Z</time>
      </trkpt>
      <trkpt lat="46.15871" lon="7.70062">
        <ele>2467.8415527</ele>
        <time>2013-04-06T06:09:12Z</time>
      </trkpt>
      <trkpt lat="46.15851" lon="7.70098">
        <ele>2464.9577637</ele>
        <time>2013-04-06T06:09:24Z</time>
      </trkpt>
      <trkpt lat="46.15848" lon="7.70102">
        <ele>2464.4770508</ele>
        <time>2013-04-06T06:09:25Z</time>
      </trkpt>
      <trkpt lat="46.15813" lon="7.70058">
        <ele>2461.5932617</ele>
        <time>2013-04-06T06:09:33Z</time>
      </trkpt>
      <trkpt lat="46.15812" lon="7.70138">
        <ele>2459.670166</ele>
        <time>2013-04-06T06:09:36Z</time>
      </trkpt>
      <trkpt lat="46.15747" lon="7.70164">
        <ele>2454.3830566</ele>
        <time>2013-04-06T06:10:02Z</time>
      </trkpt>
      <trkpt lat="46.1572" lon="7.70183">
        <ele>2450.5378418</ele>
        <time>2013-04-06T06:10:13Z</time>
      </trkpt>
      <trkpt lat="46.1569" lon="7.70125">
        <ele>2447.6540527</ele>
        <time>2013-04-06T06:10:16Z</time>
      </trkpt>
      <trkpt lat="46.15635" lon="7.70132">
        <ele>2442.847168</ele>
        <time>2013-04-06T06:10:31Z</time>
      </trkpt>
      <trkpt lat="46.15614" lon="7.70224">
        <ele>2440.4438477</ele>
        <time>2013-04-06T06:10:41Z</time>
      </trkpt>
      <trkpt lat="46.15452" lon="7.70275">
        <ele>2422.1789551</ele>
        <time>2013-04-06T06:11:31Z</time>
      </trkpt>
      <trkpt lat="46.15415" lon="7.70265">
        <ele>2417.3723145</ele>
        <time>2013-04-06T06:11:39Z</time>
      </trkpt>
      <trkpt lat="46.15367" lon="7.70202">
        <ele>2413.5270996</ele>
        <time>2013-04-06T06:13:09Z</time>
      </trkpt>
      <trkpt lat="46.15359" lon="7.70196">
        <ele>2412.565918</ele>
        <time>2013-04-06T06:16:06Z</time>
      </trkpt>
      <trkpt lat="46.15361" lon="7.7017">
        <ele>2415.4499512</ele>
        <time>2013-04-06T06:18:44Z</time>
      </trkpt>
      <trkpt lat="46.15332" lon="7.70144">
        <ele>2417.8530273</ele>
        <time>2013-04-06T06:19:19Z</time>
      </trkpt>
      <trkpt lat="46.15306" lon="7.70123">
        <ele>2424.5822754</ele>
        <time>2013-04-06T06:20:10Z</time>
      </trkpt>
      <trkpt lat="46.15288" lon="7.70112">
        <ele>2425.543457</ele>
        <time>2013-04-06T06:20:30Z</time>
      </trkpt>
      <trkpt lat="46.1523" lon="7.70093">
        <ele>2431.3115234</ele>
        <time>2013-04-06T06:21:35Z</time>
      </trkpt>
      <trkpt lat="46.15214" lon="7.70073">
        <ele>2437.5600586</ele>
        <time>2013-04-06T06:22:11Z</time>
      </trkpt>
      <trkpt lat="46.15195" lon="7.70143">
        <ele>2458.7089844</ele>
        <time>2013-04-06T06:24:05Z</time>
      </trkpt>
      <trkpt lat="46.15173" lon="7.70132">
        <ele>2465.4384766</ele>
        <time>2013-04-06T06:24:52Z</time>
      </trkpt>
      <trkpt lat="46.15173" lon="7.70167">
        <ele>2472.6481934</ele>
        <time>2013-04-06T06:25:59Z</time>
      </trkpt>
      <trkpt lat="46.15156" lon="7.70159">
        <ele>2477.9355469</ele>
        <time>2013-04-06T06:26:28Z</time>
      </trkpt>
      <trkpt lat="46.15146" lon="7.70184">
        <ele>2487.0678711</ele>
        <time>2013-04-06T06:27:11Z</time>
      </trkpt>
      <trkpt lat="46.1515" lon="7.70208">
        <ele>2493.7973633</ele>
        <time>2013-04-06T06:27:56Z</time>
      </trkpt>
      <trkpt lat="46.15133" lon="7.7021">
        <ele>2500.0458984</ele>
        <time>2013-04-06T06:28:31Z</time>
      </trkpt>
      <trkpt lat="46.15145" lon="7.70252">
        <ele>2511.5817871</ele>
        <time>2013-04-06T06:29:54Z</time>
      </trkpt>
      <trkpt lat="46.1512" lon="7.70251">
        <ele>2518.310791</ele>
        <time>2013-04-06T06:30:46Z</time>
      </trkpt>
      <trkpt lat="46.15113" lon="7.70297">
        <ele>2528.8852539</ele>
        <time>2013-04-06T06:32:16Z</time>
      </trkpt>
      <trkpt lat="46.15092" lon="7.70298">
        <ele>2537.5371094</ele>
        <time>2013-04-06T06:33:03Z</time>
      </trkpt>
      <trkpt lat="46.15096" lon="7.70322">
        <ele>2548.5922852</ele>
        <time>2013-04-06T06:34:15Z</time>
      </trkpt>
      <trkpt lat="46.15076" lon="7.70332">
        <ele>2553.8796387</ele>
        <time>2013-04-06T06:35:03Z</time>
      </trkpt>
      <trkpt lat="46.15088" lon="7.70348">
        <ele>2558.6862793</ele>
        <time>2013-04-06T06:35:39Z</time>
      </trkpt>
      <trkpt lat="46.15065" lon="7.70336">
        <ele>2569.2607422</ele>
        <time>2013-04-06T06:36:59Z</time>
      </trkpt>
      <trkpt lat="46.15055" lon="7.70334">
        <ele>2571.6638184</ele>
        <time>2013-04-06T06:37:24Z</time>
      </trkpt>
      <trkpt lat="46.15062" lon="7.70377">
        <ele>2580.315918</ele>
        <time>2013-04-06T06:38:21Z</time>
      </trkpt>
      <trkpt lat="46.1509" lon="7.70405">
        <ele>2592.8129883</ele>
        <time>2013-04-06T06:39:36Z</time>
      </trkpt>
      <trkpt lat="46.15093" lon="7.70481">
        <ele>2596.6582031</ele>
        <time>2013-04-06T06:40:43Z</time>
      </trkpt>
      <trkpt lat="46.15058" lon="7.70543">
        <ele>2604.3486328</ele>
        <time>2013-04-06T06:41:50Z</time>
      </trkpt>
      <trkpt lat="46.15058" lon="7.70555">
        <ele>2604.8291016</ele>
        <time>2013-04-06T06:42:04Z</time>
      </trkpt>
      <trkpt lat="46.15089" lon="7.70598">
        <ele>2619.2495117</ele>
        <time>2013-04-06T06:43:35Z</time>
      </trkpt>
      <trkpt lat="46.1506" lon="7.70687">
        <ele>2640.3979492</ele>
        <time>2013-04-06T06:49:52Z</time>
      </trkpt>
      <trkpt lat="46.15038" lon="7.70844">
        <ele>2660.5859375</ele>
        <time>2013-04-06T06:52:35Z</time>
      </trkpt>
      <trkpt lat="46.14991" lon="7.70943">
        <ele>2679.8125</ele>
        <time>2013-04-06T06:54:50Z</time>
      </trkpt>
      <trkpt lat="46.14995" lon="7.7096">
        <ele>2686.5415039</ele>
        <time>2013-04-06T06:55:28Z</time>
      </trkpt>
      <trkpt lat="46.14987" lon="7.70987">
        <ele>2692.3095703</ele>
        <time>2013-04-06T06:56:05Z</time>
      </trkpt>
      <trkpt lat="46.14967" lon="7.71001">
        <ele>2700.9614258</ele>
        <time>2013-04-06T06:56:56Z</time>
      </trkpt>
      <trkpt lat="46.14971" lon="7.71082">
        <ele>2719.7070313</ele>
        <time>2013-04-06T06:59:06Z</time>
      </trkpt>
      <trkpt lat="46.14949" lon="7.71173">
        <ele>2740.8564453</ele>
        <time>2013-04-06T07:01:18Z</time>
      </trkpt>
      <trkpt lat="46.14912" lon="7.71316">
        <ele>2773.0605469</ele>
        <time>2013-04-06T07:04:33Z</time>
      </trkpt>
      <trkpt lat="46.14895" lon="7.71396">
        <ele>2785.5576172</ele>
        <time>2013-04-06T07:07:31Z</time>
      </trkpt>
      <trkpt lat="46.14859" lon="7.71498">
        <ele>2806.2260742</ele>
        <time>2013-04-06T07:10:13Z</time>
      </trkpt>
      <trkpt lat="46.14855" lon="7.71539">
        <ele>2814.3969727</ele>
        <time>2013-04-06T07:11:20Z</time>
      </trkpt>
      <trkpt lat="46.14809" lon="7.71636">
        <ele>2844.6787109</ele>
        <time>2013-04-06T07:15:30Z</time>
      </trkpt>
      <trkpt lat="46.14717" lon="7.72091">
        <ele>2897.0698242</ele>
        <time>2013-04-06T07:26:38Z</time>
      </trkpt>
      <trkpt lat="46.14672" lon="7.72167">
        <ele>2922.5449219</ele>
        <time>2013-04-06T07:29:42Z</time>
      </trkpt>
      <trkpt lat="46.14685" lon="7.72185">
        <ele>2927.3515625</ele>
        <time>2013-04-06T07:30:40Z</time>
      </trkpt>
      <trkpt lat="46.14663" lon="7.72197">
        <ele>2931.1967773</ele>
        <time>2013-04-06T07:31:21Z</time>
      </trkpt>
      <trkpt lat="46.14687" lon="7.72205">
        <ele>2936.0039063</ele>
        <time>2013-04-06T07:33:50Z</time>
      </trkpt>
      <trkpt lat="46.14666" lon="7.72227">
        <ele>2941.7714844</ele>
        <time>2013-04-06T07:34:50Z</time>
      </trkpt>
      <trkpt lat="46.1468" lon="7.72243">
        <ele>2949.4619141</ele>
        <time>2013-04-06T07:35:51Z</time>
      </trkpt>
      <trkpt lat="46.14658" lon="7.72257">
        <ele>2955.2299805</ele>
        <time>2013-04-06T07:36:53Z</time>
      </trkpt>
      <trkpt lat="46.14668" lon="7.72273">
        <ele>2960.0366211</ele>
        <time>2013-04-06T07:37:32Z</time>
      </trkpt>
      <trkpt lat="46.14647" lon="7.72289">
        <ele>2966.2851563</ele>
        <time>2013-04-06T07:38:21Z</time>
      </trkpt>
      <trkpt lat="46.14656" lon="7.72385">
        <ele>2987.9145508</ele>
        <time>2013-04-06T07:40:57Z</time>
      </trkpt>
      <trkpt lat="46.14666" lon="7.72411">
        <ele>2993.2021484</ele>
        <time>2013-04-06T07:41:40Z</time>
      </trkpt>
      <trkpt lat="46.14634" lon="7.72427">
        <ele>3001.8540039</ele>
        <time>2013-04-06T07:42:45Z</time>
      </trkpt>
      <trkpt lat="46.14652" lon="7.72459">
        <ele>3007.6220703</ele>
        <time>2013-04-06T07:44:03Z</time>
      </trkpt>
      <trkpt lat="46.1462" lon="7.72457">
        <ele>3015.7929688</ele>
        <time>2013-04-06T07:45:00Z</time>
      </trkpt>
      <trkpt lat="46.14623" lon="7.7249">
        <ele>3024.4448242</ele>
        <time>2013-04-06T07:46:15Z</time>
      </trkpt>
      <trkpt lat="46.1456" lon="7.72503">
        <ele>3038.8647461</ele>
        <time>2013-04-06T07:48:47Z</time>
      </trkpt>
      <trkpt lat="46.14561" lon="7.72526">
        <ele>3044.6328125</ele>
        <time>2013-04-06T07:49:27Z</time>
      </trkpt>
      <trkpt lat="46.1455" lon="7.7253">
        <ele>3047.9970703</ele>
        <time>2013-04-06T07:53:51Z</time>
      </trkpt>
      <trkpt lat="46.14518" lon="7.72527">
        <ele>3053.7651367</ele>
        <time>2013-04-06T08:01:46Z</time>
      </trkpt>
      <trkpt lat="46.14508" lon="7.72553">
        <ele>3058.5712891</ele>
        <time>2013-04-06T08:02:31Z</time>
      </trkpt>
      <trkpt lat="46.14498" lon="7.72536">
        <ele>3065.3012695</ele>
        <time>2013-04-06T08:03:31Z</time>
      </trkpt>
      <trkpt lat="46.14489" lon="7.72556">
        <ele>3070.1079102</ele>
        <time>2013-04-06T08:04:15Z</time>
      </trkpt>
      <trkpt lat="46.14483" lon="7.72535">
        <ele>3073.472168</ele>
        <time>2013-04-06T08:04:45Z</time>
      </trkpt>
      <trkpt lat="46.1447" lon="7.72561">
        <ele>3078.7592773</ele>
        <time>2013-04-06T08:05:37Z</time>
      </trkpt>
      <trkpt lat="46.1447" lon="7.72542">
        <ele>3079.2402344</ele>
        <time>2013-04-06T08:06:03Z</time>
      </trkpt>
      <trkpt lat="46.14464" lon="7.72563">
        <ele>3084.5273438</ele>
        <time>2013-04-06T08:06:54Z</time>
      </trkpt>
      <trkpt lat="46.14455" lon="7.72542">
        <ele>3090.7758789</ele>
        <time>2013-04-06T08:07:42Z</time>
      </trkpt>
      <trkpt lat="46.14454" lon="7.72551">
        <ele>3094.140625</ele>
        <time>2013-04-06T08:08:23Z</time>
      </trkpt>
      <trkpt lat="46.14444" lon="7.72546">
        <ele>3097.9858398</ele>
        <time>2013-04-06T08:09:56Z</time>
      </trkpt>
      <trkpt lat="46.14354" lon="7.7251">
        <ele>3081.1625977</ele>
        <time>2013-04-06T08:15:46Z</time>
      </trkpt>
      <trkpt lat="46.14283" lon="7.72531">
        <ele>3064.8203125</ele>
        <time>2013-04-06T08:16:39Z</time>
      </trkpt>
      <trkpt lat="46.1389" lon="7.72835">
        <ele>3125.8642578</ele>
        <time>2013-04-06T08:30:25Z</time>
      </trkpt>
      <trkpt lat="46.13848" lon="7.7286">
        <ele>3139.3227539</ele>
        <time>2013-04-06T08:35:41Z</time>
      </trkpt>
      <trkpt lat="46.13773" lon="7.72915">
        <ele>3154.7036133</ele>
        <time>2013-04-06T08:38:17Z</time>
      </trkpt>
      <trkpt lat="46.1369" lon="7.72949">
        <ele>3168.6425781</ele>
        <time>2013-04-06T08:40:58Z</time>
      </trkpt>
      <trkpt lat="46.13668" lon="7.72993">
        <ele>3178.7363281</ele>
        <time>2013-04-06T08:42:19Z</time>
      </trkpt>
      <trkpt lat="46.13631" lon="7.72984">
        <ele>3185.9462891</ele>
        <time>2013-04-06T08:43:33Z</time>
      </trkpt>
      <trkpt lat="46.13624" lon="7.73017">
        <ele>3192.1953125</ele>
        <time>2013-04-06T08:44:21Z</time>
      </trkpt>
      <trkpt lat="46.13603" lon="7.73027">
        <ele>3198.4438477</ele>
        <time>2013-04-06T08:45:20Z</time>
      </trkpt>
      <trkpt lat="46.13589" lon="7.73034">
        <ele>3201.8081055</ele>
        <time>2013-04-06T08:46:42Z</time>
      </trkpt>
      <trkpt lat="46.13388" lon="7.7336">
        <ele>3262.371582</ele>
        <time>2013-04-06T09:01:18Z</time>
      </trkpt>
      <trkpt lat="46.13345" lon="7.73418">
        <ele>3271.984375</ele>
        <time>2013-04-06T09:03:09Z</time>
      </trkpt>
      <trkpt lat="46.13347" lon="7.73454">
        <ele>3278.2329102</ele>
        <time>2013-04-06T09:04:09Z</time>
      </trkpt>
      <trkpt lat="46.13335" lon="7.7346">
        <ele>3280.6362305</ele>
        <time>2013-04-06T09:04:37Z</time>
      </trkpt>
      <trkpt lat="46.13344" lon="7.73465">
        <ele>3283.0395508</ele>
        <time>2013-04-06T09:04:53Z</time>
      </trkpt>
      <trkpt lat="46.13329" lon="7.735">
        <ele>3294.5756836</ele>
        <time>2013-04-06T09:06:50Z</time>
      </trkpt>
      <trkpt lat="46.13311" lon="7.7353">
        <ele>3302.746582</ele>
        <time>2013-04-06T09:07:56Z</time>
      </trkpt>
      <trkpt lat="46.13289" lon="7.73567">
        <ele>3310.9174805</ele>
        <time>2013-04-06T09:09:13Z</time>
      </trkpt>
      <trkpt lat="46.13251" lon="7.73597">
        <ele>3320.050293</ele>
        <time>2013-04-06T09:10:46Z</time>
      </trkpt>
      <trkpt lat="46.13273" lon="7.73652">
        <ele>3329.6635742</ele>
        <time>2013-04-06T09:12:28Z</time>
      </trkpt>
      <trkpt lat="46.13228" lon="7.73649">
        <ele>3338.7958984</ele>
        <time>2013-04-06T09:16:33Z</time>
      </trkpt>
      <trkpt lat="46.13217" lon="7.73638">
        <ele>3341.1992188</ele>
        <time>2013-04-06T09:16:56Z</time>
      </trkpt>
      <trkpt lat="46.13206" lon="7.73624">
        <ele>3343.6025391</ele>
        <time>2013-04-06T09:17:24Z</time>
      </trkpt>
      <trkpt lat="46.1319" lon="7.73732">
        <ele>3360.90625</ele>
        <time>2013-04-06T09:20:00Z</time>
      </trkpt>
      <trkpt lat="46.13199" lon="7.73776">
        <ele>3370.0390625</ele>
        <time>2013-04-06T09:21:17Z</time>
      </trkpt>
      <trkpt lat="46.13181" lon="7.73792">
        <ele>3375.8066406</ele>
        <time>2013-04-06T09:22:03Z</time>
      </trkpt>
      <trkpt lat="46.1319" lon="7.73804">
        <ele>3379.6518555</ele>
        <time>2013-04-06T09:22:40Z</time>
      </trkpt>
      <trkpt lat="46.13137" lon="7.73865">
        <ele>3397.4365234</ele>
        <time>2013-04-06T09:25:23Z</time>
      </trkpt>
      <trkpt lat="46.13136" lon="7.73889">
        <ele>3404.1655273</ele>
        <time>2013-04-06T09:26:48Z</time>
      </trkpt>
      <trkpt lat="46.13093" lon="7.73904">
        <ele>3412.8178711</ele>
        <time>2013-04-06T09:28:25Z</time>
      </trkpt>
      <trkpt lat="46.13074" lon="7.73938">
        <ele>3424.8339844</ele>
        <time>2013-04-06T09:30:09Z</time>
      </trkpt>
      <trkpt lat="46.13034" lon="7.7397">
        <ele>3438.7729492</ele>
        <time>2013-04-06T09:32:38Z</time>
      </trkpt>
      <trkpt lat="46.13028" lon="7.73984">
        <ele>3442.6181641</ele>
        <time>2013-04-06T09:34:19Z</time>
      </trkpt>
      <trkpt lat="46.13041" lon="7.73983">
        <ele>3444.5415039</ele>
        <time>2013-04-06T09:36:07Z</time>
      </trkpt>
      <trkpt lat="46.13049" lon="7.73976">
        <ele>3443.5795898</ele>
        <time>2013-04-06T09:37:00Z</time>
      </trkpt>
      <trkpt lat="46.13037" lon="7.73985">
        <ele>3443.5795898</ele>
        <time>2013-04-06T09:38:35Z</time>
      </trkpt>
      <trkpt lat="46.13037" lon="7.7397">
        <ele>3440.6958008</ele>
        <time>2013-04-06T09:40:30Z</time>
      </trkpt>
      <trkpt lat="46.13045" lon="7.73953">
        <ele>3435.4082031</ele>
        <time>2013-04-06T09:40:40Z</time>
      </trkpt>
      <trkpt lat="46.13075" lon="7.73934">
        <ele>3424.8339844</ele>
        <time>2013-04-06T09:40:59Z</time>
      </trkpt>
      <trkpt lat="46.13086" lon="7.73909">
        <ele>3417.1435547</ele>
        <time>2013-04-06T09:41:12Z</time>
      </trkpt>
      <trkpt lat="46.13136" lon="7.73892">
        <ele>3403.6850586</ele>
        <time>2013-04-06T09:42:12Z</time>
      </trkpt>
      <trkpt lat="46.13169" lon="7.73854">
        <ele>3397.9169922</ele>
        <time>2013-04-06T09:45:50Z</time>
      </trkpt>
      <trkpt lat="46.13171" lon="7.73864">
        <ele>3395.0332031</ele>
        <time>2013-04-06T09:50:11Z</time>
      </trkpt>
      <trkpt lat="46.13053" lon="7.74137">
        <ele>3384.4589844</ele>
        <time>2013-04-06T09:55:35Z</time>
      </trkpt>
      <trkpt lat="46.12924" lon="7.74506">
        <ele>3457.0380859</ele>
        <time>2013-04-06T10:06:47Z</time>
      </trkpt>
      <trkpt lat="46.12928" lon="7.74528">
        <ele>3463.2866211</ele>
        <time>2013-04-06T10:07:46Z</time>
      </trkpt>
      <trkpt lat="46.12909" lon="7.74529">
        <ele>3467.1318359</ele>
        <time>2013-04-06T10:09:15Z</time>
      </trkpt>
      <trkpt lat="46.12912" lon="7.74579">
        <ele>3482.5131836</ele>
        <time>2013-04-06T10:11:33Z</time>
      </trkpt>
      <trkpt lat="46.12897" lon="7.74639">
        <ele>3493.5683594</ele>
        <time>2013-04-06T10:35:18Z</time>
      </trkpt>
      <trkpt lat="46.12872" lon="7.74625">
        <ele>3499.3359375</ele>
        <time>2013-04-06T10:36:25Z</time>
      </trkpt>
      <trkpt lat="46.12873" lon="7.7465">
        <ele>3506.0654297</ele>
        <time>2013-04-06T10:37:57Z</time>
      </trkpt>
      <trkpt lat="46.12859" lon="7.74627">
        <ele>3507.987793</ele>
        <time>2013-04-06T10:42:07Z</time>
      </trkpt>
      <trkpt lat="46.12863" lon="7.74649">
        <ele>3511.3530273</ele>
        <time>2013-04-06T10:43:09Z</time>
      </trkpt>
      <trkpt lat="46.12845" lon="7.74621">
        <ele>3516.159668</ele>
        <time>2013-04-06T10:44:16Z</time>
      </trkpt>
      <trkpt lat="46.12849" lon="7.74649">
        <ele>3520.4853516</ele>
        <time>2013-04-06T10:45:20Z</time>
      </trkpt>
      <trkpt lat="46.12831" lon="7.74622">
        <ele>3525.2919922</ele>
        <time>2013-04-06T10:46:46Z</time>
      </trkpt>
      <trkpt lat="46.12834" lon="7.74661">
        <ele>3532.0209961</ele>
        <time>2013-04-06T10:48:14Z</time>
      </trkpt>
      <trkpt lat="46.12822" lon="7.74639">
        <ele>3534.9047852</ele>
        <time>2013-04-06T10:49:57Z</time>
      </trkpt>
      <trkpt lat="46.12822" lon="7.74669">
        <ele>3541.1538086</ele>
        <time>2013-04-06T10:51:13Z</time>
      </trkpt>
      <trkpt lat="46.12802" lon="7.74633">
        <ele>3546.440918</ele>
        <time>2013-04-06T10:53:00Z</time>
      </trkpt>
      <trkpt lat="46.12807" lon="7.74657">
        <ele>3549.8056641</ele>
        <time>2013-04-06T10:54:14Z</time>
      </trkpt>
      <trkpt lat="46.12798" lon="7.74637">
        <ele>3550.7666016</ele>
        <time>2013-04-06T11:03:05Z</time>
      </trkpt>
      <trkpt lat="46.12767" lon="7.7464">
        <ele>3575.7612305</ele>
        <time>2013-04-06T11:17:20Z</time>
      </trkpt>
      <trkpt lat="46.12754" lon="7.74634">
        <ele>3583.4516602</ele>
        <time>2013-04-06T11:19:31Z</time>
      </trkpt>
      <trkpt lat="46.12698" lon="7.7464">
        <ele>3598.3520508</ele>
        <time>2013-04-06T11:25:27Z</time>
      </trkpt>
      <trkpt lat="46.12696" lon="7.74634">
        <ele>3608.4462891</ele>
        <time>2013-04-06T11:27:49Z</time>
      </trkpt>
      <trkpt lat="46.12695" lon="7.74633">
        <ele>3607.4848633</ele>
        <time>2013-04-06T11:28:32Z</time>
      </trkpt>
      <trkpt lat="46.12696" lon="7.74632">
        <ele>3604.6005859</ele>
        <time>2013-04-06T11:31:10Z</time>
      </trkpt>
      <trkpt lat="46.12691" lon="7.7463">
        <ele>3607.0039063</ele>
        <time>2013-04-06T11:31:56Z</time>
      </trkpt>
      <trkpt lat="46.12695" lon="7.74625">
        <ele>3610.8491211</ele>
        <time>2013-04-06T11:33:31Z</time>
      </trkpt>
      <trkpt lat="46.12687" lon="7.74625">
        <ele>3615.6557617</ele>
        <time>2013-04-06T11:34:51Z</time>
      </trkpt>
      <trkpt lat="46.12686" lon="7.74612">
        <ele>3632.9594727</ele>
        <time>2013-04-06T11:43:14Z</time>
      </trkpt>
      <trkpt lat="46.1269" lon="7.74614">
        <ele>3634.4013672</ele>
        <time>2013-04-06T11:45:24Z</time>
      </trkpt>
      <trkpt lat="46.12694" lon="7.74619">
        <ele>3631.9980469</ele>
        <time>2013-04-06T11:46:47Z</time>
      </trkpt>
      <trkpt lat="46.12699" lon="7.74644">
        <ele>3626.7109375</ele>
        <time>2013-04-06T11:50:13Z</time>
      </trkpt>
      <trkpt lat="46.12704" lon="7.74642">
        <ele>3626.7109375</ele>
        <time>2013-04-06T11:50:58Z</time>
      </trkpt>
      <trkpt lat="46.1272" lon="7.74665">
        <ele>3613.7333984</ele>
        <time>2013-04-06T11:57:01Z</time>
      </trkpt>
      <trkpt lat="46.12707" lon="7.74689">
        <ele>3616.1367188</ele>
        <time>2013-04-06T11:58:54Z</time>
      </trkpt>
      <trkpt lat="46.12715" lon="7.74689">
        <ele>3619.0205078</ele>
        <time>2013-04-06T12:00:33Z</time>
      </trkpt>
      <trkpt lat="46.12738" lon="7.74695">
        <ele>3621.4238281</ele>
        <time>2013-04-06T12:02:19Z</time>
      </trkpt>
      <trkpt lat="46.12765" lon="7.74684">
        <ele>3620.9428711</ele>
        <time>2013-04-06T12:02:46Z</time>
      </trkpt>
      <trkpt lat="46.12747" lon="7.74714">
        <ele>3619.9814453</ele>
        <time>2013-04-06T12:03:28Z</time>
      </trkpt>
      <trkpt lat="46.12782" lon="7.74698">
        <ele>3618.5395508</ele>
        <time>2013-04-06T12:04:32Z</time>
      </trkpt>
      <trkpt lat="46.12814" lon="7.74717">
        <ele>3619.5009766</ele>
        <time>2013-04-06T12:05:41Z</time>
      </trkpt>
      <trkpt lat="46.12808" lon="7.74725">
        <ele>3624.3076172</ele>
        <time>2013-04-06T12:09:51Z</time>
      </trkpt>
      <trkpt lat="46.12781" lon="7.7473">
        <ele>3626.7109375</ele>
        <time>2013-04-06T12:11:31Z</time>
      </trkpt>
      <trkpt lat="46.12795" lon="7.74734">
        <ele>3633.9204102</ele>
        <time>2013-04-06T12:15:12Z</time>
      </trkpt>
      <trkpt lat="46.12755" lon="7.74756">
        <ele>3645.9375</ele>
        <time>2013-04-06T12:19:57Z</time>
      </trkpt>
      <trkpt lat="46.12685" lon="7.74777">
        <ele>3656.03125</ele>
        <time>2013-04-06T12:24:07Z</time>
      </trkpt>
      <trkpt lat="46.12687" lon="7.74782">
        <ele>3661.3183594</ele>
        <time>2013-04-06T12:25:04Z</time>
      </trkpt>
      <trkpt lat="46.12678" lon="7.74791">
        <ele>3662.2797852</ele>
        <time>2013-04-06T12:25:57Z</time>
      </trkpt>
      <trkpt lat="46.12664" lon="7.74797">
        <ele>3665.1635742</ele>
        <time>2013-04-06T12:26:30Z</time>
      </trkpt>
      <trkpt lat="46.12669" lon="7.74799">
        <ele>3672.8544922</ele>
        <time>2013-04-06T12:33:02Z</time>
      </trkpt>
      <trkpt lat="46.12658" lon="7.74802">
        <ele>3671.8930664</ele>
        <time>2013-04-06T12:34:37Z</time>
      </trkpt>
      <trkpt lat="46.12662" lon="7.74804">
        <ele>3681.9868164</ele>
        <time>2013-04-06T12:39:45Z</time>
      </trkpt>
      <trkpt lat="46.12663" lon="7.74807">
        <ele>3682.4672852</ele>
        <time>2013-04-06T12:40:46Z</time>
      </trkpt>
      <trkpt lat="46.1266" lon="7.74789">
        <ele>3694.0029297</ele>
        <time>2013-04-06T12:54:59Z</time>
      </trkpt>
      <trkpt lat="46.12618" lon="7.74755">
        <ele>3734.3789063</ele>
        <time>2013-04-06T13:08:25Z</time>
      </trkpt>
      <trkpt lat="46.12617" lon="7.74747">
        <ele>3741.1079102</ele>
        <time>2013-04-06T13:10:58Z</time>
      </trkpt>
      <trkpt lat="46.12619" lon="7.74734">
        <ele>3747.8369141</ele>
        <time>2013-04-06T13:14:12Z</time>
      </trkpt>
      <trkpt lat="46.12614" lon="7.74676">
        <ele>3764.6601563</ele>
        <time>2013-04-06T13:22:50Z</time>
      </trkpt>
      <trkpt lat="46.12603" lon="7.74677">
        <ele>3784.8476563</ele>
        <time>2013-04-06T13:43:25Z</time>
      </trkpt>
      <trkpt lat="46.12599" lon="7.74674">
        <ele>3789.6542969</ele>
        <time>2013-04-06T13:45:09Z</time>
      </trkpt>
      <trkpt lat="46.12592" lon="7.74577">
        <ele>3825.7036133</ele>
        <time>2013-04-06T14:21:37Z</time>
      </trkpt>
      <trkpt lat="46.12453" lon="7.74511">
        <ele>3801.6708984</ele>
        <time>2013-04-06T14:25:06Z</time>
      </trkpt>
      <trkpt lat="46.1241" lon="7.74484">
        <ele>3785.3286133</ele>
        <time>2013-04-06T14:27:02Z</time>
      </trkpt>
      <trkpt lat="46.12399" lon="7.74461">
        <ele>3772.3505859</ele>
        <time>2013-04-06T14:28:23Z</time>
      </trkpt>
      <trkpt lat="46.12413" lon="7.74455">
        <ele>3766.1020508</ele>
        <time>2013-04-06T14:33:06Z</time>
      </trkpt>
      <trkpt lat="46.124" lon="7.7443">
        <ele>3755.046875</ele>
        <time>2013-04-06T14:33:22Z</time>
      </trkpt>
      <trkpt lat="46.12397" lon="7.744">
        <ele>3740.1464844</ele>
        <time>2013-04-06T14:33:45Z</time>
      </trkpt>
      <trkpt lat="46.12363" lon="7.74371">
        <ele>3725.2460938</ele>
        <time>2013-04-06T14:34:10Z</time>
      </trkpt>
      <trkpt lat="46.12347" lon="7.74318">
        <ele>3700.2519531</ele>
        <time>2013-04-06T14:35:04Z</time>
      </trkpt>
      <trkpt lat="46.12348" lon="7.74312">
        <ele>3697.3676758</ele>
        <time>2013-04-06T14:35:07Z</time>
      </trkpt>
      <trkpt lat="46.12233" lon="7.74198">
        <ele>3663.7216797</ele>
        <time>2013-04-06T14:38:15Z</time>
      </trkpt>
      <trkpt lat="46.1218" lon="7.74103">
        <ele>3645.9375</ele>
        <time>2013-04-06T14:38:51Z</time>
      </trkpt>
      <trkpt lat="46.12201" lon="7.74061">
        <ele>3634.4013672</ele>
        <time>2013-04-06T14:40:36Z</time>
      </trkpt>
      <trkpt lat="46.12227" lon="7.7405">
        <ele>3624.7880859</ele>
        <time>2013-04-06T14:40:46Z</time>
      </trkpt>
      <trkpt lat="46.12254" lon="7.74045">
        <ele>3609.8881836</ele>
        <time>2013-04-06T14:41:05Z</time>
      </trkpt>
      <trkpt lat="46.12254" lon="7.74046">
        <ele>3607.0039063</ele>
        <time>2013-04-06T14:41:42Z</time>
      </trkpt>
      <trkpt lat="46.12268" lon="7.74008">
        <ele>3593.5454102</ele>
        <time>2013-04-06T14:42:04Z</time>
      </trkpt>
      <trkpt lat="46.12279" lon="7.74017">
        <ele>3590.1806641</ele>
        <time>2013-04-06T14:42:08Z</time>
      </trkpt>
      <trkpt lat="46.12323" lon="7.73972">
        <ele>3567.1088867</ele>
        <time>2013-04-06T14:42:38Z</time>
      </trkpt>
      <trkpt lat="46.12348" lon="7.73823">
        <ele>3543.0761719</ele>
        <time>2013-04-06T14:44:27Z</time>
      </trkpt>
      <trkpt lat="46.1237" lon="7.73776">
        <ele>3531.5405273</ele>
        <time>2013-04-06T14:45:29Z</time>
      </trkpt>
      <trkpt lat="46.12377" lon="7.73799">
        <ele>3525.7724609</ele>
        <time>2013-04-06T14:45:50Z</time>
      </trkpt>
      <trkpt lat="46.12392" lon="7.73769">
        <ele>3519.043457</ele>
        <time>2013-04-06T14:46:43Z</time>
      </trkpt>
      <trkpt lat="46.12397" lon="7.73785">
        <ele>3514.2368164</ele>
        <time>2013-04-06T14:46:49Z</time>
      </trkpt>
      <trkpt lat="46.12408" lon="7.7377">
        <ele>3507.0263672</ele>
        <time>2013-04-06T14:46:59Z</time>
      </trkpt>
      <trkpt lat="46.12475" lon="7.73783">
        <ele>3473.8608398</ele>
        <time>2013-04-06T14:48:59Z</time>
      </trkpt>
      <trkpt lat="46.12478" lon="7.73758">
        <ele>3465.6899414</ele>
        <time>2013-04-06T14:49:19Z</time>
      </trkpt>
      <trkpt lat="46.12489" lon="7.73778">
        <ele>3459.4414063</ele>
        <time>2013-04-06T14:49:33Z</time>
      </trkpt>
      <trkpt lat="46.12497" lon="7.73773">
        <ele>3455.1157227</ele>
        <time>2013-04-06T14:49:54Z</time>
      </trkpt>
      <trkpt lat="46.1249" lon="7.73717">
        <ele>3448.8671875</ele>
        <time>2013-04-06T14:50:29Z</time>
      </trkpt>
      <trkpt lat="46.1251" lon="7.73698">
        <ele>3433.0053711</ele>
        <time>2013-04-06T14:50:52Z</time>
      </trkpt>
      <trkpt lat="46.12506" lon="7.73703">
        <ele>3434.4472656</ele>
        <time>2013-04-06T14:51:52Z</time>
      </trkpt>
      <trkpt lat="46.1251" lon="7.73705">
        <ele>3432.0439453</ele>
        <time>2013-04-06T14:51:56Z</time>
      </trkpt>
      <trkpt lat="46.12523" lon="7.73705">
        <ele>3424.3535156</ele>
        <time>2013-04-06T14:52:02Z</time>
      </trkpt>
      <trkpt lat="46.12526" lon="7.73687">
        <ele>3419.0664063</ele>
        <time>2013-04-06T14:52:06Z</time>
      </trkpt>
      <trkpt lat="46.12552" lon="7.73683">
        <ele>3403.6850586</ele>
        <time>2013-04-06T14:52:15Z</time>
      </trkpt>
      <trkpt lat="46.12553" lon="7.73541">
        <ele>3381.0942383</ele>
        <time>2013-04-06T14:52:43Z</time>
      </trkpt>
      <trkpt lat="46.12569" lon="7.73496">
        <ele>3373.8837891</ele>
        <time>2013-04-06T14:52:51Z</time>
      </trkpt>
      <trkpt lat="46.12648" lon="7.73494">
        <ele>3351.7739258</ele>
        <time>2013-04-06T14:53:10Z</time>
      </trkpt>
      <trkpt lat="46.12731" lon="7.73387">
        <ele>3333.0283203</ele>
        <time>2013-04-06T14:53:25Z</time>
      </trkpt>
      <trkpt lat="46.12771" lon="7.7336">
        <ele>3327.2602539</ele>
        <time>2013-04-06T14:53:34Z</time>
      </trkpt>
      <trkpt lat="46.12784" lon="7.73346">
        <ele>3323.8959961</ele>
        <time>2013-04-06T14:53:38Z</time>
      </trkpt>
      <trkpt lat="46.12877" lon="7.73169">
        <ele>3297.4594727</ele>
        <time>2013-04-06T14:53:59Z</time>
      </trkpt>
      <trkpt lat="46.12872" lon="7.73137">
        <ele>3295.5366211</ele>
        <time>2013-04-06T14:55:56Z</time>
      </trkpt>
      <trkpt lat="46.12883" lon="7.73095">
        <ele>3288.3271484</ele>
        <time>2013-04-06T14:56:06Z</time>
      </trkpt>
      <trkpt lat="46.13061" lon="7.72821">
        <ele>3247.4707031</ele>
        <time>2013-04-06T14:57:16Z</time>
      </trkpt>
      <trkpt lat="46.13354" lon="7.72621">
        <ele>3185.9462891</ele>
        <time>2013-04-06T14:58:03Z</time>
      </trkpt>
      <trkpt lat="46.135" lon="7.7238">
        <ele>3168.1621094</ele>
        <time>2013-04-06T14:59:27Z</time>
      </trkpt>
      <trkpt lat="46.13522" lon="7.7232">
        <ele>3163.8364258</ele>
        <time>2013-04-06T14:59:44Z</time>
      </trkpt>
      <trkpt lat="46.13619" lon="7.72083">
        <ele>3132.5932617</ele>
        <time>2013-04-06T15:00:12Z</time>
      </trkpt>
      <trkpt lat="46.13657" lon="7.72023">
        <ele>3126.3447266</ele>
        <time>2013-04-06T15:00:20Z</time>
      </trkpt>
      <trkpt lat="46.13681" lon="7.72003">
        <ele>3121.0571289</ele>
        <time>2013-04-06T15:00:24Z</time>
      </trkpt>
      <trkpt lat="46.13743" lon="7.71986">
        <ele>3103.2729492</ele>
        <time>2013-04-06T15:00:34Z</time>
      </trkpt>
      <trkpt lat="46.13824" lon="7.71995">
        <ele>3086.9306641</ele>
        <time>2013-04-06T15:00:44Z</time>
      </trkpt>
      <trkpt lat="46.13943" lon="7.72042">
        <ele>3072.9916992</ele>
        <time>2013-04-06T15:01:02Z</time>
      </trkpt>
      <trkpt lat="46.13963" lon="7.7203">
        <ele>3072.0302734</ele>
        <time>2013-04-06T15:01:07Z</time>
      </trkpt>
      <trkpt lat="46.13981" lon="7.72037">
        <ele>3068.1850586</ele>
        <time>2013-04-06T15:02:33Z</time>
      </trkpt>
      <trkpt lat="46.14071" lon="7.72008">
        <ele>3049.9199219</ele>
        <time>2013-04-06T15:02:54Z</time>
      </trkpt>
      <trkpt lat="46.14152" lon="7.71912">
        <ele>3026.8481445</ele>
        <time>2013-04-06T15:04:32Z</time>
      </trkpt>
      <trkpt lat="46.14185" lon="7.71902">
        <ele>3016.2739258</ele>
        <time>2013-04-06T15:04:38Z</time>
      </trkpt>
      <trkpt lat="46.14193" lon="7.71901">
        <ele>3011.4672852</ele>
        <time>2013-04-06T15:04:40Z</time>
      </trkpt>
      <trkpt lat="46.14232" lon="7.71923">
        <ele>2995.6049805</ele>
        <time>2013-04-06T15:05:46Z</time>
      </trkpt>
      <trkpt lat="46.14243" lon="7.71921">
        <ele>2989.3564453</ele>
        <time>2013-04-06T15:05:50Z</time>
      </trkpt>
      <trkpt lat="46.14357" lon="7.71809">
        <ele>2947.5395508</ele>
        <time>2013-04-06T15:06:05Z</time>
      </trkpt>
      <trkpt lat="46.14368" lon="7.7179">
        <ele>2946.0976563</ele>
        <time>2013-04-06T15:06:07Z</time>
      </trkpt>
      <trkpt lat="46.14395" lon="7.71755">
        <ele>2937.4458008</ele>
        <time>2013-04-06T15:06:11Z</time>
      </trkpt>
      <trkpt lat="46.14405" lon="7.71735">
        <ele>2933.1201172</ele>
        <time>2013-04-06T15:06:13Z</time>
      </trkpt>
      <trkpt lat="46.14469" lon="7.71683">
        <ele>2922.0644531</ele>
        <time>2013-04-06T15:07:18Z</time>
      </trkpt>
      <trkpt lat="46.14494" lon="7.7165">
        <ele>2913.4125977</ele>
        <time>2013-04-06T15:07:24Z</time>
      </trkpt>
      <trkpt lat="46.14504" lon="7.71637">
        <ele>2909.0869141</ele>
        <time>2013-04-06T15:07:26Z</time>
      </trkpt>
      <trkpt lat="46.14584" lon="7.71501">
        <ele>2876.4018555</ele>
        <time>2013-04-06T15:07:43Z</time>
      </trkpt>
      <trkpt lat="46.14639" lon="7.71379">
        <ele>2858.6171875</ele>
        <time>2013-04-06T15:07:56Z</time>
      </trkpt>
      <trkpt lat="46.14641" lon="7.71345">
        <ele>2857.65625</ele>
        <time>2013-04-06T15:08:01Z</time>
      </trkpt>
      <trkpt lat="46.14664" lon="7.71291">
        <ele>2847.0820313</ele>
        <time>2013-04-06T15:09:02Z</time>
      </trkpt>
      <trkpt lat="46.1473" lon="7.71196">
        <ele>2825.4521484</ele>
        <time>2013-04-06T15:09:16Z</time>
      </trkpt>
      <trkpt lat="46.1474" lon="7.71121">
        <ele>2819.2036133</ele>
        <time>2013-04-06T15:09:26Z</time>
      </trkpt>
      <trkpt lat="46.14746" lon="7.71089">
        <ele>2814.3969727</ele>
        <time>2013-04-06T15:09:30Z</time>
      </trkpt>
      <trkpt lat="46.14761" lon="7.71048">
        <ele>2807.1870117</ele>
        <time>2013-04-06T15:09:36Z</time>
      </trkpt>
      <trkpt lat="46.14738" lon="7.7103">
        <ele>2805.2646484</ele>
        <time>2013-04-06T15:11:09Z</time>
      </trkpt>
      <trkpt lat="46.14733" lon="7.71006">
        <ele>2800.9384766</ele>
        <time>2013-04-06T15:11:15Z</time>
      </trkpt>
      <trkpt lat="46.14755" lon="7.70881">
        <ele>2773.0605469</ele>
        <time>2013-04-06T15:11:31Z</time>
      </trkpt>
      <trkpt lat="46.14802" lon="7.70803">
        <ele>2755.2758789</ele>
        <time>2013-04-06T15:11:43Z</time>
      </trkpt>
      <trkpt lat="46.14865" lon="7.70743">
        <ele>2738.4526367</ele>
        <time>2013-04-06T15:11:59Z</time>
      </trkpt>
      <trkpt lat="46.14857" lon="7.70724">
        <ele>2735.0878906</ele>
        <time>2013-04-06T15:12:46Z</time>
      </trkpt>
      <trkpt lat="46.14928" lon="7.7067">
        <ele>2712.0166016</ele>
        <time>2013-04-06T15:13:00Z</time>
      </trkpt>
      <trkpt lat="46.14946" lon="7.70637">
        <ele>2702.4033203</ele>
        <time>2013-04-06T15:13:25Z</time>
      </trkpt>
      <trkpt lat="46.14983" lon="7.70608">
        <ele>2687.9833984</ele>
        <time>2013-04-06T15:13:54Z</time>
      </trkpt>
      <trkpt lat="46.15025" lon="7.70514">
        <ele>2665.8730469</ele>
        <time>2013-04-06T15:14:08Z</time>
      </trkpt>
      <trkpt lat="46.15017" lon="7.705">
        <ele>2662.027832</ele>
        <time>2013-04-06T15:14:38Z</time>
      </trkpt>
      <trkpt lat="46.15032" lon="7.7048">
        <ele>2652.4150391</ele>
        <time>2013-04-06T15:14:50Z</time>
      </trkpt>
      <trkpt lat="46.15032" lon="7.70455">
        <ele>2646.6469727</ele>
        <time>2013-04-06T15:14:56Z</time>
      </trkpt>
      <trkpt lat="46.15036" lon="7.70441">
        <ele>2640.8789063</ele>
        <time>2013-04-06T15:15:09Z</time>
      </trkpt>
      <trkpt lat="46.1506" lon="7.70437">
        <ele>2630.7851563</ele>
        <time>2013-04-06T15:15:17Z</time>
      </trkpt>
      <trkpt lat="46.15074" lon="7.7043">
        <ele>2622.1333008</ele>
        <time>2013-04-06T15:15:21Z</time>
      </trkpt>
      <trkpt lat="46.15063" lon="7.70395">
        <ele>2617.3266602</ele>
        <time>2013-04-06T15:15:42Z</time>
      </trkpt>
      <trkpt lat="46.1508" lon="7.70329">
        <ele>2591.3710938</ele>
        <time>2013-04-06T15:16:18Z</time>
      </trkpt>
      <trkpt lat="46.15121" lon="7.70329">
        <ele>2567.8186035</ele>
        <time>2013-04-06T15:17:00Z</time>
      </trkpt>
      <trkpt lat="46.15123" lon="7.70311">
        <ele>2564.4541016</ele>
        <time>2013-04-06T15:17:05Z</time>
      </trkpt>
      <trkpt lat="46.15131" lon="7.70292">
        <ele>2555.802002</ele>
        <time>2013-04-06T15:17:16Z</time>
      </trkpt>
      <trkpt lat="46.15143" lon="7.70276">
        <ele>2549.5537109</ele>
        <time>2013-04-06T15:17:39Z</time>
      </trkpt>
      <trkpt lat="46.15151" lon="7.70268">
        <ele>2544.2663574</ele>
        <time>2013-04-06T15:17:43Z</time>
      </trkpt>
      <trkpt lat="46.15149" lon="7.70265">
        <ele>2542.3439941</ele>
        <time>2013-04-06T15:17:44Z</time>
      </trkpt>
      <trkpt lat="46.15162" lon="7.70258">
        <ele>2536.5756836</ele>
        <time>2013-04-06T15:17:49Z</time>
      </trkpt>
      <trkpt lat="46.15155" lon="7.70195">
        <ele>2522.6367188</ele>
        <time>2013-04-06T15:19:24Z</time>
      </trkpt>
      <trkpt lat="46.15208" lon="7.70135">
        <ele>2491.3937988</ele>
        <time>2013-04-06T15:19:55Z</time>
      </trkpt>
      <trkpt lat="46.1521" lon="7.7014">
        <ele>2490.9130859</ele>
        <time>2013-04-06T15:20:06Z</time>
      </trkpt>
      <trkpt lat="46.15227" lon="7.70126">
        <ele>2481.3000488</ele>
        <time>2013-04-06T15:20:15Z</time>
      </trkpt>
      <trkpt lat="46.1523" lon="7.70104">
        <ele>2479.3774414</ele>
        <time>2013-04-06T15:20:22Z</time>
      </trkpt>
      <trkpt lat="46.15239" lon="7.70092">
        <ele>2469.2836914</ele>
        <time>2013-04-06T15:20:33Z</time>
      </trkpt>
      <trkpt lat="46.15294" lon="7.701">
        <ele>2462.0737305</ele>
        <time>2013-04-06T15:20:45Z</time>
      </trkpt>
      <trkpt lat="46.15437" lon="7.70263">
        <ele>2459.1896973</ele>
        <time>2013-04-06T15:30:59Z</time>
      </trkpt>
      <trkpt lat="46.15557" lon="7.70259">
        <ele>2470.7255859</ele>
        <time>2013-04-06T15:33:37Z</time>
      </trkpt>
      <trkpt lat="46.15724" lon="7.70194">
        <ele>2488.9904785</ele>
        <time>2013-04-06T15:37:32Z</time>
      </trkpt>
      <trkpt lat="46.15838" lon="7.70127">
        <ele>2501.9682617</ele>
        <time>2013-04-06T15:40:20Z</time>
      </trkpt>
      <trkpt lat="46.15889" lon="7.70058">
        <ele>2507.7363281</ele>
        <time>2013-04-06T15:41:46Z</time>
      </trkpt>
      <trkpt lat="46.15949" lon="7.70028">
        <ele>2510.1396484</ele>
        <time>2013-04-06T15:42:54Z</time>
      </trkpt>
      <trkpt lat="46.16001" lon="7.6996">
        <ele>2518.310791</ele>
        <time>2013-04-06T15:44:30Z</time>
      </trkpt>
      <trkpt lat="46.16005" lon="7.69957">
        <ele>2513.5041504</ele>
        <time>2013-04-06T15:45:15Z</time>
      </trkpt>
    </trkseg>
  </trk>
  <trk>
    <name><![CDATA[J 3 Bishorn]]></name>
    <trkseg>
      <trkpt lat="46.16028" lon="7.69887">
        <ele>2512.5429688</ele>
        <time>2013-04-07T02:55:12Z</time>
      </trkpt>
      <trkpt lat="46.16008" lon="7.69952">
        <ele>2512.5429688</ele>
        <time>2013-04-07T02:55:32Z</time>
      </trkpt>
      <trkpt lat="46.15992" lon="7.69967">
        <ele>2512.0622559</ele>
        <time>2013-04-07T02:55:54Z</time>
      </trkpt>
      <trkpt lat="46.15942" lon="7.70073">
        <ele>2504.8522949</ele>
        <time>2013-04-07T02:56:26Z</time>
      </trkpt>
      <trkpt lat="46.15855" lon="7.70018">
        <ele>2501.9682617</ele>
        <time>2013-04-07T02:56:36Z</time>
      </trkpt>
      <trkpt lat="46.15897" lon="7.7013">
        <ele>2501.0070801</ele>
        <time>2013-04-07T02:56:41Z</time>
      </trkpt>
      <trkpt lat="46.15881" lon="7.70156">
        <ele>2497.6425781</ele>
        <time>2013-04-07T02:56:49Z</time>
      </trkpt>
      <trkpt lat="46.15794" lon="7.70133">
        <ele>2492.8359375</ele>
        <time>2013-04-07T02:57:09Z</time>
      </trkpt>
      <trkpt lat="46.15717" lon="7.70178">
        <ele>2484.184082</ele>
        <time>2013-04-07T02:57:46Z</time>
      </trkpt>
      <trkpt lat="46.1567" lon="7.70183">
        <ele>2479.3774414</ele>
        <time>2013-04-07T02:58:09Z</time>
      </trkpt>
      <trkpt lat="46.15509" lon="7.70241">
        <ele>2462.5544434</ele>
        <time>2013-04-07T02:59:10Z</time>
      </trkpt>
      <trkpt lat="46.15483" lon="7.7026">
        <ele>2459.1896973</ele>
        <time>2013-04-07T02:59:19Z</time>
      </trkpt>
      <trkpt lat="46.15421" lon="7.70245">
        <ele>2452.9411621</ele>
        <time>2013-04-07T02:59:40Z</time>
      </trkpt>
      <trkpt lat="46.15375" lon="7.70181">
        <ele>2451.0185547</ele>
        <time>2013-04-07T03:00:29Z</time>
      </trkpt>
      <trkpt lat="46.15376" lon="7.70173">
        <ele>2449.5766602</ele>
        <time>2013-04-07T03:04:03Z</time>
      </trkpt>
      <trkpt lat="46.15334" lon="7.7015">
        <ele>2458.7089844</ele>
        <time>2013-04-07T03:08:11Z</time>
      </trkpt>
      <trkpt lat="46.15289" lon="7.70116">
        <ele>2461.1125488</ele>
        <time>2013-04-07T03:09:29Z</time>
      </trkpt>
      <trkpt lat="46.15223" lon="7.70089">
        <ele>2476.4936523</ele>
        <time>2013-04-07T03:11:34Z</time>
      </trkpt>
      <trkpt lat="46.15196" lon="7.70143">
        <ele>2495.2392578</ele>
        <time>2013-04-07T03:14:03Z</time>
      </trkpt>
      <trkpt lat="46.15168" lon="7.70154">
        <ele>2511.5817871</ele>
        <time>2013-04-07T03:15:46Z</time>
      </trkpt>
      <trkpt lat="46.15163" lon="7.70161">
        <ele>2513.5041504</ele>
        <time>2013-04-07T03:16:03Z</time>
      </trkpt>
      <trkpt lat="46.1514" lon="7.70204">
        <ele>2535.1337891</ele>
        <time>2013-04-07T03:18:26Z</time>
      </trkpt>
      <trkpt lat="46.15143" lon="7.70217">
        <ele>2538.4985352</ele>
        <time>2013-04-07T03:18:48Z</time>
      </trkpt>
      <trkpt lat="46.15134" lon="7.70274">
        <ele>2551.9567871</ele>
        <time>2013-04-07T03:20:23Z</time>
      </trkpt>
      <trkpt lat="46.15117" lon="7.70256">
        <ele>2556.282959</ele>
        <time>2013-04-07T03:20:58Z</time>
      </trkpt>
      <trkpt lat="46.1512" lon="7.70295">
        <ele>2562.0507813</ele>
        <time>2013-04-07T03:21:41Z</time>
      </trkpt>
      <trkpt lat="46.15101" lon="7.70338">
        <ele>2582.7189941</ele>
        <time>2013-04-07T03:24:28Z</time>
      </trkpt>
      <trkpt lat="46.15082" lon="7.70335">
        <ele>2588.4873047</ele>
        <time>2013-04-07T03:25:09Z</time>
      </trkpt>
      <trkpt lat="46.1509" lon="7.7035">
        <ele>2592.3325195</ele>
        <time>2013-04-07T03:25:55Z</time>
      </trkpt>
      <trkpt lat="46.15084" lon="7.70353">
        <ele>2594.2548828</ele>
        <time>2013-04-07T03:26:09Z</time>
      </trkpt>
      <trkpt lat="46.15061" lon="7.70341">
        <ele>2604.8291016</ele>
        <time>2013-04-07T03:27:33Z</time>
      </trkpt>
      <trkpt lat="46.15063" lon="7.70381">
        <ele>2613.4814453</ele>
        <time>2013-04-07T03:28:37Z</time>
      </trkpt>
      <trkpt lat="46.15085" lon="7.70401">
        <ele>2620.6914063</ele>
        <time>2013-04-07T03:29:30Z</time>
      </trkpt>
      <trkpt lat="46.15086" lon="7.70413">
        <ele>2623.5751953</ele>
        <time>2013-04-07T03:29:51Z</time>
      </trkpt>
      <trkpt lat="46.15075" lon="7.7043">
        <ele>2630.3041992</ele>
        <time>2013-04-07T03:30:40Z</time>
      </trkpt>
      <trkpt lat="46.15057" lon="7.70445">
        <ele>2632.7075195</ele>
        <time>2013-04-07T03:31:09Z</time>
      </trkpt>
      <trkpt lat="46.15018" lon="7.70438">
        <ele>2649.050293</ele>
        <time>2013-04-07T03:33:19Z</time>
      </trkpt>
      <trkpt lat="46.14992" lon="7.70428">
        <ele>2655.2988281</ele>
        <time>2013-04-07T03:35:12Z</time>
      </trkpt>
      <trkpt lat="46.1499" lon="7.70461">
        <ele>2664.9116211</ele>
        <time>2013-04-07T03:36:07Z</time>
      </trkpt>
      <trkpt lat="46.14979" lon="7.70497">
        <ele>2674.0439453</ele>
        <time>2013-04-07T03:37:05Z</time>
      </trkpt>
      <trkpt lat="46.14929" lon="7.70542">
        <ele>2695.6738281</ele>
        <time>2013-04-07T03:39:28Z</time>
      </trkpt>
      <trkpt lat="46.14852" lon="7.70647">
        <ele>2727.3974609</ele>
        <time>2013-04-07T03:43:02Z</time>
      </trkpt>
      <trkpt lat="46.14752" lon="7.70714">
        <ele>2758.6401367</ele>
        <time>2013-04-07T03:46:55Z</time>
      </trkpt>
      <trkpt lat="46.14654" lon="7.70863">
        <ele>2798.0541992</ele>
        <time>2013-04-07T03:51:46Z</time>
      </trkpt>
      <trkpt lat="46.14607" lon="7.70974">
        <ele>2826.4130859</ele>
        <time>2013-04-07T03:55:15Z</time>
      </trkpt>
      <trkpt lat="46.14587" lon="7.71045">
        <ele>2837.9492188</ele>
        <time>2013-04-07T03:56:48Z</time>
      </trkpt>
      <trkpt lat="46.14442" lon="7.71323">
        <ele>2886.4956055</ele>
        <time>2013-04-07T04:04:00Z</time>
      </trkpt>
      <trkpt lat="46.14394" lon="7.71457">
        <ele>2908.6064453</ele>
        <time>2013-04-07T04:07:09Z</time>
      </trkpt>
      <trkpt lat="46.14367" lon="7.71519">
        <ele>2915.3354492</ele>
        <time>2013-04-07T04:08:20Z</time>
      </trkpt>
      <trkpt lat="46.14336" lon="7.71647">
        <ele>2934.5620117</ele>
        <time>2013-04-07T04:11:05Z</time>
      </trkpt>
      <trkpt lat="46.14331" lon="7.71749">
        <ele>2953.7880859</ele>
        <time>2013-04-07T04:13:30Z</time>
      </trkpt>
      <trkpt lat="46.14324" lon="7.71758">
        <ele>2954.7495117</ele>
        <time>2013-04-07T04:15:17Z</time>
      </trkpt>
      <trkpt lat="46.14269" lon="7.71682">
        <ele>2977.340332</ele>
        <time>2013-04-07T04:17:39Z</time>
      </trkpt>
      <trkpt lat="46.14243" lon="7.71643">
        <ele>2985.5117188</ele>
        <time>2013-04-07T04:18:48Z</time>
      </trkpt>
      <trkpt lat="46.14229" lon="7.71568">
        <ele>2997.0473633</ele>
        <time>2013-04-07T04:20:16Z</time>
      </trkpt>
      <trkpt lat="46.14191" lon="7.71433">
        <ele>3014.831543</ele>
        <time>2013-04-07T04:22:47Z</time>
      </trkpt>
      <trkpt lat="46.14137" lon="7.7133">
        <ele>3024.4448242</ele>
        <time>2013-04-07T04:27:57Z</time>
      </trkpt>
      <trkpt lat="46.14197" lon="7.70951">
        <ele>2994.1630859</ele>
        <time>2013-04-07T04:30:44Z</time>
      </trkpt>
      <trkpt lat="46.14269" lon="7.70494">
        <ele>2952.3461914</ele>
        <time>2013-04-07T04:33:25Z</time>
      </trkpt>
      <trkpt lat="46.14281" lon="7.70246">
        <ele>2923.9873047</ele>
        <time>2013-04-07T04:34:55Z</time>
      </trkpt>
      <trkpt lat="46.14295" lon="7.70197">
        <ele>2916.7773438</ele>
        <time>2013-04-07T04:35:38Z</time>
      </trkpt>
      <trkpt lat="46.14262" lon="7.69876">
        <ele>2891.7827148</ele>
        <time>2013-04-07T04:40:59Z</time>
      </trkpt>
      <trkpt lat="46.14263" lon="7.69832">
        <ele>2885.0537109</ele>
        <time>2013-04-07T04:41:15Z</time>
      </trkpt>
      <trkpt lat="46.1422" lon="7.69733">
        <ele>2876.4018555</ele>
        <time>2013-04-07T04:42:35Z</time>
      </trkpt>
      <trkpt lat="46.14202" lon="7.69637">
        <ele>2866.7885742</ele>
        <time>2013-04-07T04:43:40Z</time>
      </trkpt>
      <trkpt lat="46.1422" lon="7.69502">
        <ele>2846.6010742</ele>
        <time>2013-04-07T04:44:52Z</time>
      </trkpt>
      <trkpt lat="46.14227" lon="7.69507">
        <ele>2844.1977539</ele>
        <time>2013-04-07T04:45:14Z</time>
      </trkpt>
      <trkpt lat="46.14232" lon="7.69495">
        <ele>2839.3916016</ele>
        <time>2013-04-07T04:45:22Z</time>
      </trkpt>
      <trkpt lat="46.14238" lon="7.69493">
        <ele>2834.5844727</ele>
        <time>2013-04-07T04:45:26Z</time>
      </trkpt>
      <trkpt lat="46.14243" lon="7.69502">
        <ele>2833.1425781</ele>
        <time>2013-04-07T04:45:31Z</time>
      </trkpt>
      <trkpt lat="46.14271" lon="7.69466">
        <ele>2820.1645508</ele>
        <time>2013-04-07T04:46:01Z</time>
      </trkpt>
      <trkpt lat="46.14263" lon="7.6929">
        <ele>2804.3032227</ele>
        <time>2013-04-07T04:47:19Z</time>
      </trkpt>
      <trkpt lat="46.14323" lon="7.6926">
        <ele>2791.3251953</ele>
        <time>2013-04-07T04:48:14Z</time>
      </trkpt>
      <trkpt lat="46.14323" lon="7.6918">
        <ele>2788.921875</ele>
        <time>2013-04-07T04:52:07Z</time>
      </trkpt>
      <trkpt lat="46.143" lon="7.69086">
        <ele>2785.0766602</ele>
        <time>2013-04-07T04:53:20Z</time>
      </trkpt>
      <trkpt lat="46.14176" lon="7.68964">
        <ele>2792.7670898</ele>
        <time>2013-04-07T04:55:55Z</time>
      </trkpt>
      <trkpt lat="46.14162" lon="7.68925">
        <ele>2797.0927734</ele>
        <time>2013-04-07T04:56:38Z</time>
      </trkpt>
      <trkpt lat="46.14169" lon="7.68898">
        <ele>2799.9770508</ele>
        <time>2013-04-07T04:57:06Z</time>
      </trkpt>
      <trkpt lat="46.14113" lon="7.68838">
        <ele>2804.7836914</ele>
        <time>2013-04-07T04:58:32Z</time>
      </trkpt>
      <trkpt lat="46.14093" lon="7.68772">
        <ele>2807.1870117</ele>
        <time>2013-04-07T04:59:27Z</time>
      </trkpt>
      <trkpt lat="46.14097" lon="7.68714">
        <ele>2810.0712891</ele>
        <time>2013-04-07T05:00:21Z</time>
      </trkpt>
      <trkpt lat="46.1412" lon="7.68655">
        <ele>2811.0322266</ele>
        <time>2013-04-07T05:01:01Z</time>
      </trkpt>
      <trkpt lat="46.14113" lon="7.68614">
        <ele>2814.3969727</ele>
        <time>2013-04-07T05:01:43Z</time>
      </trkpt>
      <trkpt lat="46.14138" lon="7.68565">
        <ele>2819.684082</ele>
        <time>2013-04-07T05:02:34Z</time>
      </trkpt>
      <trkpt lat="46.14116" lon="7.68562">
        <ele>2820.6455078</ele>
        <time>2013-04-07T05:02:53Z</time>
      </trkpt>
      <trkpt lat="46.14131" lon="7.68556">
        <ele>2824.0102539</ele>
        <time>2013-04-07T05:03:18Z</time>
      </trkpt>
      <trkpt lat="46.14145" lon="7.68523">
        <ele>2829.777832</ele>
        <time>2013-04-07T05:04:15Z</time>
      </trkpt>
      <trkpt lat="46.14154" lon="7.68501">
        <ele>2832.6616211</ele>
        <time>2013-04-07T05:04:38Z</time>
      </trkpt>
      <trkpt lat="46.14181" lon="7.68461">
        <ele>2835.5454102</ele>
        <time>2013-04-07T05:05:00Z</time>
      </trkpt>
      <trkpt lat="46.14187" lon="7.68384">
        <ele>2848.5239258</ele>
        <time>2013-04-07T05:06:40Z</time>
      </trkpt>
      <trkpt lat="46.14169" lon="7.68389">
        <ele>2854.7724609</ele>
        <time>2013-04-07T05:07:27Z</time>
      </trkpt>
      <trkpt lat="46.14146" lon="7.68401">
        <ele>2857.65625</ele>
        <time>2013-04-07T05:07:51Z</time>
      </trkpt>
      <trkpt lat="46.14157" lon="7.68383">
        <ele>2863.9047852</ele>
        <time>2013-04-07T05:08:40Z</time>
      </trkpt>
      <trkpt lat="46.14124" lon="7.68414">
        <ele>2869.6728516</ele>
        <time>2013-04-07T05:09:24Z</time>
      </trkpt>
      <trkpt lat="46.14115" lon="7.68387">
        <ele>2875.9213867</ele>
        <time>2013-04-07T05:10:13Z</time>
      </trkpt>
      <trkpt lat="46.14139" lon="7.6834">
        <ele>2885.0537109</ele>
        <time>2013-04-07T05:11:22Z</time>
      </trkpt>
      <trkpt lat="46.14086" lon="7.6837">
        <ele>2894.1860352</ele>
        <time>2013-04-07T05:12:39Z</time>
      </trkpt>
      <trkpt lat="46.14068" lon="7.6833">
        <ele>2901.3964844</ele>
        <time>2013-04-07T05:13:59Z</time>
      </trkpt>
      <trkpt lat="46.14059" lon="7.68331">
        <ele>2900.9160156</ele>
        <time>2013-04-07T05:14:34Z</time>
      </trkpt>
      <trkpt lat="46.14065" lon="7.68321">
        <ele>2900.4350586</ele>
        <time>2013-04-07T05:16:34Z</time>
      </trkpt>
      <trkpt lat="46.14048" lon="7.68333">
        <ele>2898.512207</ele>
        <time>2013-04-07T05:17:44Z</time>
      </trkpt>
      <trkpt lat="46.14048" lon="7.68302">
        <ele>2907.6450195</ele>
        <time>2013-04-07T05:19:34Z</time>
      </trkpt>
      <trkpt lat="46.13952" lon="7.68348">
        <ele>2925.909668</ele>
        <time>2013-04-07T05:21:39Z</time>
      </trkpt>
      <trkpt lat="46.13984" lon="7.68251">
        <ele>2936.965332</ele>
        <time>2013-04-07T05:23:15Z</time>
      </trkpt>
      <trkpt lat="46.13954" lon="7.68212">
        <ele>2949.4619141</ele>
        <time>2013-04-07T05:24:44Z</time>
      </trkpt>
      <trkpt lat="46.13971" lon="7.68185">
        <ele>2958.5942383</ele>
        <time>2013-04-07T05:26:03Z</time>
      </trkpt>
      <trkpt lat="46.13999" lon="7.68162">
        <ele>2967.246582</ele>
        <time>2013-04-07T05:27:22Z</time>
      </trkpt>
      <trkpt lat="46.13995" lon="7.68134">
        <ele>2970.1308594</ele>
        <time>2013-04-07T05:27:51Z</time>
      </trkpt>
      <trkpt lat="46.13951" lon="7.68127">
        <ele>2982.6274414</ele>
        <time>2013-04-07T05:29:32Z</time>
      </trkpt>
      <trkpt lat="46.13877" lon="7.68189">
        <ele>3010.9863281</ele>
        <time>2013-04-07T05:33:33Z</time>
      </trkpt>
      <trkpt lat="46.13858" lon="7.68198">
        <ele>3016.7543945</ele>
        <time>2013-04-07T05:34:21Z</time>
      </trkpt>
      <trkpt lat="46.13842" lon="7.68192">
        <ele>3020.1186523</ele>
        <time>2013-04-07T05:34:45Z</time>
      </trkpt>
      <trkpt lat="46.13845" lon="7.68181">
        <ele>3023.4833984</ele>
        <time>2013-04-07T05:35:11Z</time>
      </trkpt>
      <trkpt lat="46.13848" lon="7.68149">
        <ele>3029.2519531</ele>
        <time>2013-04-07T05:36:03Z</time>
      </trkpt>
      <trkpt lat="46.13845" lon="7.68108">
        <ele>3035.5</ele>
        <time>2013-04-07T05:36:53Z</time>
      </trkpt>
      <trkpt lat="46.13891" lon="7.68013">
        <ele>3057.6103516</ele>
        <time>2013-04-07T05:39:51Z</time>
      </trkpt>
      <trkpt lat="46.13831" lon="7.6804">
        <ele>3072.5107422</ele>
        <time>2013-04-07T05:42:00Z</time>
      </trkpt>
      <trkpt lat="46.13839" lon="7.67963">
        <ele>3089.3334961</ele>
        <time>2013-04-07T05:44:58Z</time>
      </trkpt>
      <trkpt lat="46.1378" lon="7.67976">
        <ele>3105.1958008</ele>
        <time>2013-04-07T05:46:47Z</time>
      </trkpt>
      <trkpt lat="46.13774" lon="7.67951">
        <ele>3111.4443359</ele>
        <time>2013-04-07T05:47:30Z</time>
      </trkpt>
      <trkpt lat="46.13681" lon="7.6796">
        <ele>3130.1899414</ele>
        <time>2013-04-07T05:49:58Z</time>
      </trkpt>
      <trkpt lat="46.13579" lon="7.68008">
        <ele>3144.6098633</ele>
        <time>2013-04-07T05:52:41Z</time>
      </trkpt>
      <trkpt lat="46.13351" lon="7.68136">
        <ele>3168.1621094</ele>
        <time>2013-04-07T05:57:44Z</time>
      </trkpt>
      <trkpt lat="46.13274" lon="7.6816">
        <ele>3178.7363281</ele>
        <time>2013-04-07T05:59:34Z</time>
      </trkpt>
      <trkpt lat="46.13215" lon="7.68147">
        <ele>3194.1176758</ele>
        <time>2013-04-07T06:01:33Z</time>
      </trkpt>
      <trkpt lat="46.1319" lon="7.68114">
        <ele>3205.1728516</ele>
        <time>2013-04-07T06:02:53Z</time>
      </trkpt>
      <trkpt lat="46.13182" lon="7.68111">
        <ele>3207.0952148</ele>
        <time>2013-04-07T06:03:07Z</time>
      </trkpt>
      <trkpt lat="46.13151" lon="7.6815">
        <ele>3221.034668</ele>
        <time>2013-04-07T06:05:19Z</time>
      </trkpt>
      <trkpt lat="46.13145" lon="7.68128">
        <ele>3226.3217773</ele>
        <time>2013-04-07T06:05:56Z</time>
      </trkpt>
      <trkpt lat="46.1314" lon="7.68115">
        <ele>3228.7250977</ele>
        <time>2013-04-07T06:06:16Z</time>
      </trkpt>
      <trkpt lat="46.13112" lon="7.68076">
        <ele>3234.012207</ele>
        <time>2013-04-07T06:07:12Z</time>
      </trkpt>
      <trkpt lat="46.13115" lon="7.68047">
        <ele>3239.7802734</ele>
        <time>2013-04-07T06:07:50Z</time>
      </trkpt>
      <trkpt lat="46.13053" lon="7.68039">
        <ele>3253.7197266</ele>
        <time>2013-04-07T06:09:32Z</time>
      </trkpt>
      <trkpt lat="46.13034" lon="7.68038">
        <ele>3257.0839844</ele>
        <time>2013-04-07T06:10:40Z</time>
      </trkpt>
      <trkpt lat="46.13008" lon="7.68038">
        <ele>3256.6035156</ele>
        <time>2013-04-07T06:11:13Z</time>
      </trkpt>
      <trkpt lat="46.12994" lon="7.68026">
        <ele>3251.315918</ele>
        <time>2013-04-07T06:11:23Z</time>
      </trkpt>
      <trkpt lat="46.13" lon="7.67972">
        <ele>3252.7583008</ele>
        <time>2013-04-07T06:33:03Z</time>
      </trkpt>
      <trkpt lat="46.13013" lon="7.67989">
        <ele>3254.2001953</ele>
        <time>2013-04-07T06:33:34Z</time>
      </trkpt>
      <trkpt lat="46.13023" lon="7.67948">
        <ele>3253.2387695</ele>
        <time>2013-04-07T06:34:04Z</time>
      </trkpt>
      <trkpt lat="46.13011" lon="7.67971">
        <ele>3253.2387695</ele>
        <time>2013-04-07T06:34:36Z</time>
      </trkpt>
      <trkpt lat="46.12997" lon="7.68001">
        <ele>3245.5478516</ele>
        <time>2013-04-07T06:37:51Z</time>
      </trkpt>
      <trkpt lat="46.1299" lon="7.68053">
        <ele>3249.8740234</ele>
        <time>2013-04-07T06:38:58Z</time>
      </trkpt>
      <trkpt lat="46.12982" lon="7.68088">
        <ele>3248.4321289</ele>
        <time>2013-04-07T06:39:19Z</time>
      </trkpt>
      <trkpt lat="46.12975" lon="7.68109">
        <ele>3245.0673828</ele>
        <time>2013-04-07T06:39:29Z</time>
      </trkpt>
      <trkpt lat="46.12946" lon="7.68151">
        <ele>3236.8964844</ele>
        <time>2013-04-07T06:39:48Z</time>
      </trkpt>
      <trkpt lat="46.12979" lon="7.68341">
        <ele>3260.4487305</ele>
        <time>2013-04-07T06:43:02Z</time>
      </trkpt>
      <trkpt lat="46.12943" lon="7.68515">
        <ele>3289.769043</ele>
        <time>2013-04-07T06:46:31Z</time>
      </trkpt>
      <trkpt lat="46.12916" lon="7.68646">
        <ele>3303.2270508</ele>
        <time>2013-04-07T06:49:59Z</time>
      </trkpt>
      <trkpt lat="46.12895" lon="7.68751">
        <ele>3310.4370117</ele>
        <time>2013-04-07T06:51:33Z</time>
      </trkpt>
      <trkpt lat="46.12882" lon="7.6882">
        <ele>3312.359375</ele>
        <time>2013-04-07T06:52:26Z</time>
      </trkpt>
      <trkpt lat="46.12848" lon="7.68903">
        <ele>3321.4926758</ele>
        <time>2013-04-07T06:54:22Z</time>
      </trkpt>
      <trkpt lat="46.12818" lon="7.69075">
        <ele>3330.144043</ele>
        <time>2013-04-07T06:57:04Z</time>
      </trkpt>
      <trkpt lat="46.12765" lon="7.69281">
        <ele>3334.4702148</ele>
        <time>2013-04-07T06:59:28Z</time>
      </trkpt>
      <trkpt lat="46.12727" lon="7.69565">
        <ele>3340.237793</ele>
        <time>2013-04-07T07:03:03Z</time>
      </trkpt>
      <trkpt lat="46.12738" lon="7.69896">
        <ele>3366.6743164</ele>
        <time>2013-04-07T07:08:31Z</time>
      </trkpt>
      <trkpt lat="46.12761" lon="7.69995">
        <ele>3382.0556641</ele>
        <time>2013-04-07T07:10:17Z</time>
      </trkpt>
      <trkpt lat="46.12787" lon="7.70029">
        <ele>3387.3427734</ele>
        <time>2013-04-07T07:11:03Z</time>
      </trkpt>
      <trkpt lat="46.12821" lon="7.70063">
        <ele>3388.784668</ele>
        <time>2013-04-07T07:11:56Z</time>
      </trkpt>
      <trkpt lat="46.12835" lon="7.70101">
        <ele>3387.3427734</ele>
        <time>2013-04-07T07:12:28Z</time>
      </trkpt>
      <trkpt lat="46.12847" lon="7.70403">
        <ele>3441.6567383</ele>
        <time>2013-04-07T07:21:37Z</time>
      </trkpt>
      <trkpt lat="46.12806" lon="7.70442">
        <ele>3457.9995117</ele>
        <time>2013-04-07T07:23:16Z</time>
      </trkpt>
      <trkpt lat="46.12831" lon="7.70495">
        <ele>3470.496582</ele>
        <time>2013-04-07T07:24:40Z</time>
      </trkpt>
      <trkpt lat="46.12825" lon="7.70611">
        <ele>3495.4907227</ele>
        <time>2013-04-07T07:27:36Z</time>
      </trkpt>
      <trkpt lat="46.1282" lon="7.70683">
        <ele>3510.8720703</ele>
        <time>2013-04-07T07:29:28Z</time>
      </trkpt>
      <trkpt lat="46.12716" lon="7.70668">
        <ele>3548.3637695</ele>
        <time>2013-04-07T07:33:56Z</time>
      </trkpt>
      <trkpt lat="46.12691" lon="7.70662">
        <ele>3557.4960938</ele>
        <time>2013-04-07T07:35:04Z</time>
      </trkpt>
      <trkpt lat="46.12697" lon="7.70697">
        <ele>3566.1474609</ele>
        <time>2013-04-07T07:36:09Z</time>
      </trkpt>
      <trkpt lat="46.12709" lon="7.70754">
        <ele>3574.3193359</ele>
        <time>2013-04-07T07:37:28Z</time>
      </trkpt>
      <trkpt lat="46.12694" lon="7.70757">
        <ele>3580.5678711</ele>
        <time>2013-04-07T07:38:08Z</time>
      </trkpt>
      <trkpt lat="46.1263" lon="7.7072">
        <ele>3596.4291992</ele>
        <time>2013-04-07T07:41:08Z</time>
      </trkpt>
      <trkpt lat="46.12645" lon="7.70749">
        <ele>3601.7163086</ele>
        <time>2013-04-07T07:41:51Z</time>
      </trkpt>
      <trkpt lat="46.12624" lon="7.70748">
        <ele>3609.8881836</ele>
        <time>2013-04-07T07:42:54Z</time>
      </trkpt>
      <trkpt lat="46.12626" lon="7.70753">
        <ele>3611.8105469</ele>
        <time>2013-04-07T07:43:09Z</time>
      </trkpt>
      <trkpt lat="46.12634" lon="7.70791">
        <ele>3620.9428711</ele>
        <time>2013-04-07T07:44:20Z</time>
      </trkpt>
      <trkpt lat="46.12617" lon="7.70784">
        <ele>3625.7495117</ele>
        <time>2013-04-07T07:44:59Z</time>
      </trkpt>
      <trkpt lat="46.12618" lon="7.70803">
        <ele>3631.0366211</ele>
        <time>2013-04-07T07:45:36Z</time>
      </trkpt>
      <trkpt lat="46.12614" lon="7.70808">
        <ele>3632.9594727</ele>
        <time>2013-04-07T07:45:53Z</time>
      </trkpt>
      <trkpt lat="46.12562" lon="7.70798">
        <ele>3652.6665039</ele>
        <time>2013-04-07T07:48:20Z</time>
      </trkpt>
      <trkpt lat="46.12571" lon="7.70823">
        <ele>3658.434082</ele>
        <time>2013-04-07T07:49:08Z</time>
      </trkpt>
      <trkpt lat="46.12573" lon="7.70855">
        <ele>3664.6826172</ele>
        <time>2013-04-07T07:50:01Z</time>
      </trkpt>
      <trkpt lat="46.12539" lon="7.70841">
        <ele>3671.4125977</ele>
        <time>2013-04-07T07:51:05Z</time>
      </trkpt>
      <trkpt lat="46.12549" lon="7.70856">
        <ele>3676.699707</ele>
        <time>2013-04-07T07:51:45Z</time>
      </trkpt>
      <trkpt lat="46.12555" lon="7.70877">
        <ele>3680.0639648</ele>
        <time>2013-04-07T07:52:15Z</time>
      </trkpt>
      <trkpt lat="46.12518" lon="7.70865">
        <ele>3687.2739258</ele>
        <time>2013-04-07T07:53:26Z</time>
      </trkpt>
      <trkpt lat="46.12528" lon="7.70883">
        <ele>3693.0419922</ele>
        <time>2013-04-07T07:54:20Z</time>
      </trkpt>
      <trkpt lat="46.12501" lon="7.70874">
        <ele>3698.3291016</ele>
        <time>2013-04-07T07:55:20Z</time>
      </trkpt>
      <trkpt lat="46.12505" lon="7.70893">
        <ele>3704.097168</ele>
        <time>2013-04-07T07:57:03Z</time>
      </trkpt>
      <trkpt lat="46.12479" lon="7.70889">
        <ele>3708.9038086</ele>
        <time>2013-04-07T07:57:39Z</time>
      </trkpt>
      <trkpt lat="46.1248" lon="7.70892">
        <ele>3711.7875977</ele>
        <time>2013-04-07T07:57:59Z</time>
      </trkpt>
      <trkpt lat="46.12487" lon="7.70909">
        <ele>3714.6713867</ele>
        <time>2013-04-07T07:58:25Z</time>
      </trkpt>
      <trkpt lat="46.12484" lon="7.70938">
        <ele>3721.4008789</ele>
        <time>2013-04-07T07:58:58Z</time>
      </trkpt>
      <trkpt lat="46.12458" lon="7.7096">
        <ele>3732.9370117</ele>
        <time>2013-04-07T08:00:08Z</time>
      </trkpt>
      <trkpt lat="46.12461" lon="7.70982">
        <ele>3739.1855469</ele>
        <time>2013-04-07T08:00:51Z</time>
      </trkpt>
      <trkpt lat="46.12449" lon="7.71058">
        <ele>3754.5664063</ele>
        <time>2013-04-07T08:02:44Z</time>
      </trkpt>
      <trkpt lat="46.12408" lon="7.71074">
        <ele>3768.9863281</ele>
        <time>2013-04-07T08:10:06Z</time>
      </trkpt>
      <trkpt lat="46.12397" lon="7.71076">
        <ele>3770.4282227</ele>
        <time>2013-04-07T08:10:27Z</time>
      </trkpt>
      <trkpt lat="46.12408" lon="7.7111">
        <ele>3779.0800781</ele>
        <time>2013-04-07T08:11:26Z</time>
      </trkpt>
      <trkpt lat="46.12375" lon="7.7112">
        <ele>3787.7314453</ele>
        <time>2013-04-07T08:12:30Z</time>
      </trkpt>
      <trkpt lat="46.12381" lon="7.7113">
        <ele>3791.0961914</ele>
        <time>2013-04-07T08:13:00Z</time>
      </trkpt>
      <trkpt lat="46.12376" lon="7.71136">
        <ele>3793.4995117</ele>
        <time>2013-04-07T08:13:18Z</time>
      </trkpt>
      <trkpt lat="46.12345" lon="7.71144">
        <ele>3802.6323242</ele>
        <time>2013-04-07T08:14:24Z</time>
      </trkpt>
      <trkpt lat="46.12351" lon="7.71161">
        <ele>3809.3613281</ele>
        <time>2013-04-07T08:15:59Z</time>
      </trkpt>
      <trkpt lat="46.12317" lon="7.7118">
        <ele>3819.9355469</ele>
        <time>2013-04-07T08:17:16Z</time>
      </trkpt>
      <trkpt lat="46.12328" lon="7.71204">
        <ele>3825.7036133</ele>
        <time>2013-04-07T08:18:01Z</time>
      </trkpt>
      <trkpt lat="46.12287" lon="7.71207">
        <ele>3836.2783203</ele>
        <time>2013-04-07T08:19:33Z</time>
      </trkpt>
      <trkpt lat="46.12295" lon="7.71232">
        <ele>3841.5654297</ele>
        <time>2013-04-07T08:20:25Z</time>
      </trkpt>
      <trkpt lat="46.12306" lon="7.71359">
        <ele>3861.753418</ele>
        <time>2013-04-07T08:23:30Z</time>
      </trkpt>
      <trkpt lat="46.1226" lon="7.7136">
        <ele>3878.5761719</ele>
        <time>2013-04-07T08:25:44Z</time>
      </trkpt>
      <trkpt lat="46.12254" lon="7.7142">
        <ele>3890.5927734</ele>
        <time>2013-04-07T08:27:32Z</time>
      </trkpt>
      <trkpt lat="46.12178" lon="7.71382">
        <ele>3915.1064453</ele>
        <time>2013-04-07T08:30:55Z</time>
      </trkpt>
      <trkpt lat="46.12191" lon="7.71404">
        <ele>3919.9125977</ele>
        <time>2013-04-07T08:31:37Z</time>
      </trkpt>
      <trkpt lat="46.12185" lon="7.71433">
        <ele>3926.6425781</ele>
        <time>2013-04-07T08:32:37Z</time>
      </trkpt>
      <trkpt lat="46.12184" lon="7.71443">
        <ele>3928.5649414</ele>
        <time>2013-04-07T08:32:56Z</time>
      </trkpt>
      <trkpt lat="46.121" lon="7.71388">
        <ele>3962.2114258</ele>
        <time>2013-04-07T08:38:05Z</time>
      </trkpt>
      <trkpt lat="46.12109" lon="7.71413">
        <ele>3967.9790039</ele>
        <time>2013-04-07T08:38:58Z</time>
      </trkpt>
      <trkpt lat="46.12082" lon="7.7141">
        <ele>3983.3598633</ele>
        <time>2013-04-07T08:41:24Z</time>
      </trkpt>
      <trkpt lat="46.1207" lon="7.71528">
        <ele>4006.4316406</ele>
        <time>2013-04-07T08:45:28Z</time>
      </trkpt>
      <trkpt lat="46.12053" lon="7.71531">
        <ele>4011.71875</ele>
        <time>2013-04-07T08:46:28Z</time>
      </trkpt>
      <trkpt lat="46.12058" lon="7.71559">
        <ele>4018.9287109</ele>
        <time>2013-04-07T08:47:33Z</time>
      </trkpt>
      <trkpt lat="46.12006" lon="7.71536">
        <ele>4031.9067383</ele>
        <time>2013-04-07T08:49:44Z</time>
      </trkpt>
      <trkpt lat="46.11988" lon="7.7156">
        <ele>4043.4423828</ele>
        <time>2013-04-07T08:51:26Z</time>
      </trkpt>
      <trkpt lat="46.11934" lon="7.71552">
        <ele>4057.3818359</ele>
        <time>2013-04-07T08:53:21Z</time>
      </trkpt>
      <trkpt lat="46.11929" lon="7.71559">
        <ele>4062.6689453</ele>
        <time>2013-04-07T08:54:39Z</time>
      </trkpt>
      <trkpt lat="46.11926" lon="7.71583">
        <ele>4069.3979492</ele>
        <time>2013-04-07T08:55:32Z</time>
      </trkpt>
      <trkpt lat="46.11917" lon="7.71602">
        <ele>4074.6850586</ele>
        <time>2013-04-07T08:56:15Z</time>
      </trkpt>
      <trkpt lat="46.11872" lon="7.71591">
        <ele>4090.0664063</ele>
        <time>2013-04-07T08:58:18Z</time>
      </trkpt>
      <trkpt lat="46.1185" lon="7.7163">
        <ele>4104.4858398</ele>
        <time>2013-04-07T09:00:16Z</time>
      </trkpt>
      <trkpt lat="46.11822" lon="7.71602">
        <ele>4117.4643555</ele>
        <time>2013-04-07T09:02:04Z</time>
      </trkpt>
      <trkpt lat="46.11812" lon="7.71617">
        <ele>4123.7128906</ele>
        <time>2013-04-07T09:02:55Z</time>
      </trkpt>
      <trkpt lat="46.11794" lon="7.71616">
        <ele>4130.4418945</ele>
        <time>2013-04-07T09:03:54Z</time>
      </trkpt>
      <trkpt lat="46.11792" lon="7.71567">
        <ele>4138.1323242</ele>
        <time>2013-04-07T09:06:06Z</time>
      </trkpt>
      <trkpt lat="46.11794" lon="7.71554">
        <ele>4136.6904297</ele>
        <time>2013-04-07T09:08:15Z</time>
      </trkpt>
      <trkpt lat="46.11776" lon="7.71551">
        <ele>4138.1323242</ele>
        <time>2013-04-07T09:14:29Z</time>
      </trkpt>
      <trkpt lat="46.11787" lon="7.71482">
        <ele>4159.28125</ele>
        <time>2013-04-07T09:19:21Z</time>
      </trkpt>
      <trkpt lat="46.11796" lon="7.71506">
        <ele>4159.28125</ele>
        <time>2013-04-07T09:21:25Z</time>
      </trkpt>
      <trkpt lat="46.11799" lon="7.71492">
        <ele>4159.762207</ele>
        <time>2013-04-07T09:25:52Z</time>
      </trkpt>
      <trkpt lat="46.118" lon="7.71495">
        <ele>4158.8007813</ele>
        <time>2013-04-07T09:26:15Z</time>
      </trkpt>
      <trkpt lat="46.11793" lon="7.715">
        <ele>4158.3198242</ele>
        <time>2013-04-07T09:36:21Z</time>
      </trkpt>
      <trkpt lat="46.11796" lon="7.71501">
        <ele>4157.8393555</ele>
        <time>2013-04-07T09:40:58Z</time>
      </trkpt>
      <trkpt lat="46.11788" lon="7.71507">
        <ele>4151.1103516</ele>
        <time>2013-04-07T09:42:40Z</time>
      </trkpt>
      <trkpt lat="46.11778" lon="7.71551">
        <ele>4136.2094727</ele>
        <time>2013-04-07T09:43:54Z</time>
      </trkpt>
      <trkpt lat="46.11802" lon="7.71569">
        <ele>4132.3642578</ele>
        <time>2013-04-07T09:50:51Z</time>
      </trkpt>
      <trkpt lat="46.11809" lon="7.7163">
        <ele>4119.3867188</ele>
        <time>2013-04-07T09:51:03Z</time>
      </trkpt>
      <trkpt lat="46.11826" lon="7.7165">
        <ele>4114.0991211</ele>
        <time>2013-04-07T09:51:08Z</time>
      </trkpt>
      <trkpt lat="46.11853" lon="7.71657">
        <ele>4103.5249023</ele>
        <time>2013-04-07T09:51:15Z</time>
      </trkpt>
      <trkpt lat="46.11877" lon="7.71624">
        <ele>4092.9506836</ele>
        <time>2013-04-07T09:53:10Z</time>
      </trkpt>
      <trkpt lat="46.11933" lon="7.71572">
        <ele>4066.0332031</ele>
        <time>2013-04-07T09:54:02Z</time>
      </trkpt>
      <trkpt lat="46.11947" lon="7.71558">
        <ele>4056.9008789</ele>
        <time>2013-04-07T09:54:08Z</time>
      </trkpt>
      <trkpt lat="46.11949" lon="7.71537">
        <ele>4055.4589844</ele>
        <time>2013-04-07T09:54:26Z</time>
      </trkpt>
      <trkpt lat="46.11992" lon="7.71554">
        <ele>4041.5195313</ele>
        <time>2013-04-07T09:54:57Z</time>
      </trkpt>
      <trkpt lat="46.12017" lon="7.71535">
        <ele>4028.0615234</ele>
        <time>2013-04-07T09:55:14Z</time>
      </trkpt>
      <trkpt lat="46.12057" lon="7.7156">
        <ele>4016.5253906</ele>
        <time>2013-04-07T09:55:38Z</time>
      </trkpt>
      <trkpt lat="46.12069" lon="7.7141">
        <ele>3980.956543</ele>
        <time>2013-04-07T09:56:37Z</time>
      </trkpt>
      <trkpt lat="46.12129" lon="7.71404">
        <ele>3948.7524414</ele>
        <time>2013-04-07T09:57:56Z</time>
      </trkpt>
      <trkpt lat="46.12202" lon="7.71448">
        <ele>3918.4707031</ele>
        <time>2013-04-07T09:58:19Z</time>
      </trkpt>
      <trkpt lat="46.12258" lon="7.71422">
        <ele>3887.7084961</ele>
        <time>2013-04-07T10:00:04Z</time>
      </trkpt>
      <trkpt lat="46.12256" lon="7.71399">
        <ele>3884.3442383</ele>
        <time>2013-04-07T10:00:16Z</time>
      </trkpt>
      <trkpt lat="46.12308" lon="7.71363">
        <ele>3861.2729492</ele>
        <time>2013-04-07T10:00:31Z</time>
      </trkpt>
      <trkpt lat="46.12337" lon="7.71299">
        <ele>3836.7592773</ele>
        <time>2013-04-07T10:00:43Z</time>
      </trkpt>
      <trkpt lat="46.12328" lon="7.71271">
        <ele>3836.7592773</ele>
        <time>2013-04-07T10:02:21Z</time>
      </trkpt>
      <trkpt lat="46.12327" lon="7.71254">
        <ele>3833.875</ele>
        <time>2013-04-07T10:02:27Z</time>
      </trkpt>
      <trkpt lat="46.12347" lon="7.71165">
        <ele>3808.4003906</ele>
        <time>2013-04-07T10:02:58Z</time>
      </trkpt>
      <trkpt lat="46.12327" lon="7.71131">
        <ele>3801.6708984</ele>
        <time>2013-04-07T10:03:07Z</time>
      </trkpt>
      <trkpt lat="46.12425" lon="7.7104">
        <ele>3762.7373047</ele>
        <time>2013-04-07T10:05:11Z</time>
      </trkpt>
      <trkpt lat="46.12436" lon="7.71011">
        <ele>3753.6049805</ele>
        <time>2013-04-07T10:05:19Z</time>
      </trkpt>
      <trkpt lat="46.12503" lon="7.70928">
        <ele>3721.4008789</ele>
        <time>2013-04-07T10:06:43Z</time>
      </trkpt>
      <trkpt lat="46.12527" lon="7.70929">
        <ele>3713.2294922</ele>
        <time>2013-04-07T10:06:53Z</time>
      </trkpt>
      <trkpt lat="46.12539" lon="7.70922">
        <ele>3703.6166992</ele>
        <time>2013-04-07T10:06:59Z</time>
      </trkpt>
      <trkpt lat="46.12549" lon="7.70926">
        <ele>3702.6552734</ele>
        <time>2013-04-07T10:07:01Z</time>
      </trkpt>
      <trkpt lat="46.1256" lon="7.70921">
        <ele>3696.8867188</ele>
        <time>2013-04-07T10:07:05Z</time>
      </trkpt>
      <trkpt lat="46.12556" lon="7.70882">
        <ele>3688.2353516</ele>
        <time>2013-04-07T10:07:42Z</time>
      </trkpt>
      <trkpt lat="46.12559" lon="7.70877">
        <ele>3684.3901367</ele>
        <time>2013-04-07T10:07:46Z</time>
      </trkpt>
      <trkpt lat="46.12619" lon="7.70801">
        <ele>3637.7661133</ele>
        <time>2013-04-07T10:08:25Z</time>
      </trkpt>
      <trkpt lat="46.12672" lon="7.70774">
        <ele>3610.3686523</ele>
        <time>2013-04-07T10:09:18Z</time>
      </trkpt>
      <trkpt lat="46.12673" lon="7.70762">
        <ele>3608.4462891</ele>
        <time>2013-04-07T10:10:32Z</time>
      </trkpt>
      <trkpt lat="46.12709" lon="7.70721">
        <ele>3582.9711914</ele>
        <time>2013-04-07T10:10:49Z</time>
      </trkpt>
      <trkpt lat="46.12705" lon="7.70705">
        <ele>3579.1259766</ele>
        <time>2013-04-07T10:10:59Z</time>
      </trkpt>
      <trkpt lat="46.12726" lon="7.7068">
        <ele>3566.1474609</ele>
        <time>2013-04-07T10:11:09Z</time>
      </trkpt>
      <trkpt lat="46.12743" lon="7.70647">
        <ele>3549.8056641</ele>
        <time>2013-04-07T10:11:17Z</time>
      </trkpt>
      <trkpt lat="46.12744" lon="7.70608">
        <ele>3544.0375977</ele>
        <time>2013-04-07T10:15:47Z</time>
      </trkpt>
      <trkpt lat="46.12744" lon="7.70608">
        <ele>3546.921875</ele>
        <time>2013-04-07T10:17:34Z</time>
      </trkpt>
      <trkpt lat="46.12751" lon="7.70601">
        <ele>3543.0761719</ele>
        <time>2013-04-07T10:17:38Z</time>
      </trkpt>
      <trkpt lat="46.12758" lon="7.70593">
        <ele>3537.3081055</ele>
        <time>2013-04-07T10:17:40Z</time>
      </trkpt>
      <trkpt lat="46.12766" lon="7.70585">
        <ele>3531.5405273</ele>
        <time>2013-04-07T10:17:42Z</time>
      </trkpt>
      <trkpt lat="46.12786" lon="7.70554">
        <ele>3517.1206055</ele>
        <time>2013-04-07T10:17:48Z</time>
      </trkpt>
      <trkpt lat="46.12795" lon="7.70526">
        <ele>3510.8720703</ele>
        <time>2013-04-07T10:18:12Z</time>
      </trkpt>
      <trkpt lat="46.12818" lon="7.70503">
        <ele>3499.8168945</ele>
        <time>2013-04-07T10:18:20Z</time>
      </trkpt>
      <trkpt lat="46.12844" lon="7.70464">
        <ele>3481.0712891</ele>
        <time>2013-04-07T10:18:30Z</time>
      </trkpt>
      <trkpt lat="46.12813" lon="7.70383">
        <ele>3469.0546875</ele>
        <time>2013-04-07T10:18:42Z</time>
      </trkpt>
      <trkpt lat="46.12834" lon="7.70224">
        <ele>3430.1210938</ele>
        <time>2013-04-07T10:18:56Z</time>
      </trkpt>
      <trkpt lat="46.12834" lon="7.70099">
        <ele>3410.4140625</ele>
        <time>2013-04-07T10:19:03Z</time>
      </trkpt>
      <trkpt lat="46.12807" lon="7.70053">
        <ele>3416.1826172</ele>
        <time>2013-04-07T10:19:08Z</time>
      </trkpt>
      <trkpt lat="46.12781" lon="7.7003">
        <ele>3416.1826172</ele>
        <time>2013-04-07T10:19:14Z</time>
      </trkpt>
      <trkpt lat="46.12751" lon="7.69956">
        <ele>3404.6459961</ele>
        <time>2013-04-07T10:19:23Z</time>
      </trkpt>
      <trkpt lat="46.12732" lon="7.69638">
        <ele>3370.5195313</ele>
        <time>2013-04-07T10:19:42Z</time>
      </trkpt>
      <trkpt lat="46.12768" lon="7.69277">
        <ele>3369.5581055</ele>
        <time>2013-04-07T10:22:14Z</time>
      </trkpt>
      <trkpt lat="46.12803" lon="7.69128">
        <ele>3366.6743164</ele>
        <time>2013-04-07T10:23:25Z</time>
      </trkpt>
      <trkpt lat="46.12841" lon="7.68916">
        <ele>3355.6191406</ele>
        <time>2013-04-07T10:24:07Z</time>
      </trkpt>
      <trkpt lat="46.12896" lon="7.68738">
        <ele>3342.6411133</ele>
        <time>2013-04-07T10:24:35Z</time>
      </trkpt>
      <trkpt lat="46.12911" lon="7.6866">
        <ele>3336.8735352</ele>
        <time>2013-04-07T10:24:51Z</time>
      </trkpt>
      <trkpt lat="46.12924" lon="7.68557">
        <ele>3328.2216797</ele>
        <time>2013-04-07T10:25:08Z</time>
      </trkpt>
      <trkpt lat="46.12924" lon="7.68416">
        <ele>3311.8789063</ele>
        <time>2013-04-07T10:25:28Z</time>
      </trkpt>
      <trkpt lat="46.12975" lon="7.68261">
        <ele>3279.1943359</ele>
        <time>2013-04-07T10:26:54Z</time>
      </trkpt>
      <trkpt lat="46.12947" lon="7.68148">
        <ele>3265.7358398</ele>
        <time>2013-04-07T10:27:10Z</time>
      </trkpt>
      <trkpt lat="46.12958" lon="7.68123">
        <ele>3272.4648438</ele>
        <time>2013-04-07T10:27:43Z</time>
      </trkpt>
      <trkpt lat="46.12979" lon="7.6807">
        <ele>3277.2714844</ele>
        <time>2013-04-07T10:29:27Z</time>
      </trkpt>
      <trkpt lat="46.12988" lon="7.68046">
        <ele>3276.7910156</ele>
        <time>2013-04-07T10:29:51Z</time>
      </trkpt>
      <trkpt lat="46.13005" lon="7.67987">
        <ele>3273.9067383</ele>
        <time>2013-04-07T10:32:49Z</time>
      </trkpt>
      <trkpt lat="46.12995" lon="7.68047">
        <ele>3271.984375</ele>
        <time>2013-04-07T11:10:07Z</time>
      </trkpt>
      <trkpt lat="46.12991" lon="7.6806">
        <ele>3262.8520508</ele>
        <time>2013-04-07T11:10:39Z</time>
      </trkpt>
      <trkpt lat="46.12927" lon="7.68174">
        <ele>3246.5092773</ele>
        <time>2013-04-07T11:11:44Z</time>
      </trkpt>
      <trkpt lat="46.12922" lon="7.68206">
        <ele>3244.105957</ele>
        <time>2013-04-07T11:12:10Z</time>
      </trkpt>
      <trkpt lat="46.12902" lon="7.68172">
        <ele>3225.3608398</ele>
        <time>2013-04-07T11:14:47Z</time>
      </trkpt>
      <trkpt lat="46.12879" lon="7.6819">
        <ele>3220.0732422</ele>
        <time>2013-04-07T11:14:58Z</time>
      </trkpt>
      <trkpt lat="46.12843" lon="7.68175">
        <ele>3204.2114258</ele>
        <time>2013-04-07T11:15:21Z</time>
      </trkpt>
      <trkpt lat="46.12811" lon="7.68051">
        <ele>3138.3613281</ele>
        <time>2013-04-07T11:17:41Z</time>
      </trkpt>
      <trkpt lat="46.12765" lon="7.68053">
        <ele>3125.3837891</ele>
        <time>2013-04-07T11:18:26Z</time>
      </trkpt>
      <trkpt lat="46.12765" lon="7.68036">
        <ele>3118.6538086</ele>
        <time>2013-04-07T11:18:34Z</time>
      </trkpt>
      <trkpt lat="46.12765" lon="7.68025">
        <ele>3110.4829102</ele>
        <time>2013-04-07T11:18:42Z</time>
      </trkpt>
      <trkpt lat="46.12654" lon="7.67972">
        <ele>3077.7983398</ele>
        <time>2013-04-07T11:19:51Z</time>
      </trkpt>
      <trkpt lat="46.12639" lon="7.6794">
        <ele>3072.0302734</ele>
        <time>2013-04-07T11:20:39Z</time>
      </trkpt>
      <trkpt lat="46.12645" lon="7.67903">
        <ele>3056.168457</ele>
        <time>2013-04-07T11:20:47Z</time>
      </trkpt>
      <trkpt lat="46.12614" lon="7.6779">
        <ele>3040.3066406</ele>
        <time>2013-04-07T11:21:08Z</time>
      </trkpt>
      <trkpt lat="46.12606" lon="7.67718">
        <ele>3022.0415039</ele>
        <time>2013-04-07T11:22:07Z</time>
      </trkpt>
      <trkpt lat="46.12603" lon="7.67677">
        <ele>3007.6220703</ele>
        <time>2013-04-07T11:22:19Z</time>
      </trkpt>
      <trkpt lat="46.12605" lon="7.6766">
        <ele>2993.2021484</ele>
        <time>2013-04-07T11:22:41Z</time>
      </trkpt>
      <trkpt lat="46.1255" lon="7.67587">
        <ele>2974.9370117</ele>
        <time>2013-04-07T11:23:03Z</time>
      </trkpt>
      <trkpt lat="46.12529" lon="7.67607">
        <ele>2964.8432617</ele>
        <time>2013-04-07T11:23:29Z</time>
      </trkpt>
      <trkpt lat="46.12515" lon="7.67602">
        <ele>2954.7495117</ele>
        <time>2013-04-07T11:23:36Z</time>
      </trkpt>
      <trkpt lat="46.12511" lon="7.67582">
        <ele>2947.059082</ele>
        <time>2013-04-07T11:23:41Z</time>
      </trkpt>
      <trkpt lat="46.1249" lon="7.67566">
        <ele>2931.6777344</ele>
        <time>2013-04-07T11:24:38Z</time>
      </trkpt>
      <trkpt lat="46.12505" lon="7.67479">
        <ele>2908.6064453</ele>
        <time>2013-04-07T11:25:04Z</time>
      </trkpt>
      <trkpt lat="46.12481" lon="7.67445">
        <ele>2879.7666016</ele>
        <time>2013-04-07T11:25:21Z</time>
      </trkpt>
      <trkpt lat="46.12471" lon="7.67447">
        <ele>2877.3632813</ele>
        <time>2013-04-07T11:26:58Z</time>
      </trkpt>
      <trkpt lat="46.12446" lon="7.67435">
        <ele>2857.65625</ele>
        <time>2013-04-07T11:27:10Z</time>
      </trkpt>
      <trkpt lat="46.12434" lon="7.67448">
        <ele>2855.2529297</ele>
        <time>2013-04-07T11:27:14Z</time>
      </trkpt>
      <trkpt lat="46.12431" lon="7.67435">
        <ele>2849.4848633</ele>
        <time>2013-04-07T11:27:17Z</time>
      </trkpt>
      <trkpt lat="46.12407" lon="7.67419">
        <ele>2828.8164063</ele>
        <time>2013-04-07T11:28:02Z</time>
      </trkpt>
      <trkpt lat="46.12335" lon="7.67484">
        <ele>2802.8608398</ele>
        <time>2013-04-07T11:28:20Z</time>
      </trkpt>
      <trkpt lat="46.12334" lon="7.67481">
        <ele>2804.7836914</ele>
        <time>2013-04-07T11:28:32Z</time>
      </trkpt>
      <trkpt lat="46.1228" lon="7.67468">
        <ele>2797.5737305</ele>
        <time>2013-04-07T11:28:57Z</time>
      </trkpt>
      <trkpt lat="46.12216" lon="7.67489">
        <ele>2786.0380859</ele>
        <time>2013-04-07T11:29:08Z</time>
      </trkpt>
      <trkpt lat="46.12051" lon="7.67461">
        <ele>2763.9277344</ele>
        <time>2013-04-07T11:29:45Z</time>
      </trkpt>
      <trkpt lat="46.11971" lon="7.67452">
        <ele>2744.7016602</ele>
        <time>2013-04-07T11:30:02Z</time>
      </trkpt>
      <trkpt lat="46.11948" lon="7.67429">
        <ele>2743.2592773</ele>
        <time>2013-04-07T11:30:07Z</time>
      </trkpt>
      <trkpt lat="46.11934" lon="7.6738">
        <ele>2737.9716797</ele>
        <time>2013-04-07T11:31:06Z</time>
      </trkpt>
      <trkpt lat="46.11967" lon="7.67326">
        <ele>2724.5136719</ele>
        <time>2013-04-07T11:31:16Z</time>
      </trkpt>
      <trkpt lat="46.11995" lon="7.67344">
        <ele>2713.9394531</ele>
        <time>2013-04-07T11:31:24Z</time>
      </trkpt>
      <trkpt lat="46.1202" lon="7.67225">
        <ele>2706.2485352</ele>
        <time>2013-04-07T11:32:57Z</time>
      </trkpt>
      <trkpt lat="46.12023" lon="7.67229">
        <ele>2705.7675781</ele>
        <time>2013-04-07T11:33:48Z</time>
      </trkpt>
      <trkpt lat="46.11989" lon="7.67224">
        <ele>2691.3481445</ele>
        <time>2013-04-07T11:35:35Z</time>
      </trkpt>
      <trkpt lat="46.11984" lon="7.6721">
        <ele>2686.0610352</ele>
        <time>2013-04-07T11:35:37Z</time>
      </trkpt>
      <trkpt lat="46.11982" lon="7.66947">
        <ele>2666.8344727</ele>
        <time>2013-04-07T11:36:15Z</time>
      </trkpt>
      <trkpt lat="46.12021" lon="7.66858">
        <ele>2661.5473633</ele>
        <time>2013-04-07T11:36:33Z</time>
      </trkpt>
      <trkpt lat="46.12061" lon="7.66876">
        <ele>2654.3374023</ele>
        <time>2013-04-07T11:36:42Z</time>
      </trkpt>
      <trkpt lat="46.12077" lon="7.66871">
        <ele>2649.5307617</ele>
        <time>2013-04-07T11:36:45Z</time>
      </trkpt>
      <trkpt lat="46.12159" lon="7.66442">
        <ele>2614.4428711</ele>
        <time>2013-04-07T11:37:33Z</time>
      </trkpt>
      <trkpt lat="46.1214" lon="7.66326">
        <ele>2604.8291016</ele>
        <time>2013-04-07T11:37:45Z</time>
      </trkpt>
      <trkpt lat="46.12148" lon="7.66069">
        <ele>2588.9677734</ele>
        <time>2013-04-07T11:38:12Z</time>
      </trkpt>
      <trkpt lat="46.12155" lon="7.66041">
        <ele>2585.1223145</ele>
        <time>2013-04-07T11:38:16Z</time>
      </trkpt>
      <trkpt lat="46.12133" lon="7.65827">
        <ele>2575.5092773</ele>
        <time>2013-04-07T11:38:48Z</time>
      </trkpt>
      <trkpt lat="46.12135" lon="7.65828">
        <ele>2575.5092773</ele>
        <time>2013-04-07T11:39:01Z</time>
      </trkpt>
      <trkpt lat="46.11946" lon="7.6541">
        <ele>2542.3439941</ele>
        <time>2013-04-07T11:40:51Z</time>
      </trkpt>
      <trkpt lat="46.11775" lon="7.65174">
        <ele>2538.9790039</ele>
        <time>2013-04-07T11:48:33Z</time>
      </trkpt>
      <trkpt lat="46.11744" lon="7.65116">
        <ele>2535.614502</ele>
        <time>2013-04-07T11:49:11Z</time>
      </trkpt>
      <trkpt lat="46.11742" lon="7.65034">
        <ele>2554.3601074</ele>
        <time>2013-04-07T11:51:07Z</time>
      </trkpt>
      <trkpt lat="46.11696" lon="7.6489">
        <ele>2579.8352051</ele>
        <time>2013-04-07T11:54:10Z</time>
      </trkpt>
      <trkpt lat="46.11689" lon="7.64849">
        <ele>2584.1611328</ele>
        <time>2013-04-07T11:54:49Z</time>
      </trkpt>
      <trkpt lat="46.11675" lon="7.64803">
        <ele>2586.0837402</ele>
        <time>2013-04-07T11:59:57Z</time>
      </trkpt>
      <trkpt lat="46.11585" lon="7.64799">
        <ele>2570.2219238</ele>
        <time>2013-04-07T12:01:03Z</time>
      </trkpt>
      <trkpt lat="46.1158" lon="7.64745">
        <ele>2545.7084961</ele>
        <time>2013-04-07T12:01:24Z</time>
      </trkpt>
      <trkpt lat="46.1157" lon="7.64742">
        <ele>2542.8244629</ele>
        <time>2013-04-07T12:01:28Z</time>
      </trkpt>
      <trkpt lat="46.11546" lon="7.64674">
        <ele>2512.5429688</ele>
        <time>2013-04-07T12:02:16Z</time>
      </trkpt>
      <trkpt lat="46.11542" lon="7.6467">
        <ele>2509.1784668</ele>
        <time>2013-04-07T12:02:18Z</time>
      </trkpt>
      <trkpt lat="46.11496" lon="7.64662">
        <ele>2493.3166504</ele>
        <time>2013-04-07T12:03:46Z</time>
      </trkpt>
      <trkpt lat="46.11441" lon="7.6461">
        <ele>2470.7255859</ele>
        <time>2013-04-07T12:04:03Z</time>
      </trkpt>
      <trkpt lat="46.11391" lon="7.64615">
        <ele>2464.9577637</ele>
        <time>2013-04-07T12:04:21Z</time>
      </trkpt>
      <trkpt lat="46.11377" lon="7.64613">
        <ele>2459.670166</ele>
        <time>2013-04-07T12:04:29Z</time>
      </trkpt>
      <trkpt lat="46.11305" lon="7.64458">
        <ele>2404.3945313</ele>
        <time>2013-04-07T12:06:08Z</time>
      </trkpt>
      <trkpt lat="46.1122" lon="7.64435">
        <ele>2377.958252</ele>
        <time>2013-04-07T12:06:39Z</time>
      </trkpt>
      <trkpt lat="46.112" lon="7.64453">
        <ele>2373.6323242</ele>
        <time>2013-04-07T12:06:44Z</time>
      </trkpt>
      <trkpt lat="46.11142" lon="7.64411">
        <ele>2356.3286133</ele>
        <time>2013-04-07T12:08:23Z</time>
      </trkpt>
      <trkpt lat="46.11139" lon="7.64398">
        <ele>2352.4833984</ele>
        <time>2013-04-07T12:08:26Z</time>
      </trkpt>
      <trkpt lat="46.11132" lon="7.64442">
        <ele>2350.560791</ele>
        <time>2013-04-07T12:08:28Z</time>
      </trkpt>
      <trkpt lat="46.11122" lon="7.64393">
        <ele>2347.6767578</ele>
        <time>2013-04-07T12:08:33Z</time>
      </trkpt>
      <trkpt lat="46.11101" lon="7.64395">
        <ele>2342.8701172</ele>
        <time>2013-04-07T12:08:38Z</time>
      </trkpt>
      <trkpt lat="46.11077" lon="7.64442">
        <ele>2335.1796875</ele>
        <time>2013-04-07T12:08:52Z</time>
      </trkpt>
      <trkpt lat="46.1106" lon="7.64447">
        <ele>2325.5664063</ele>
        <time>2013-04-07T12:08:59Z</time>
      </trkpt>
      <trkpt lat="46.11032" lon="7.6439">
        <ele>2316.434082</ele>
        <time>2013-04-07T12:09:06Z</time>
      </trkpt>
      <trkpt lat="46.10978" lon="7.64401">
        <ele>2295.765625</ele>
        <time>2013-04-07T12:10:06Z</time>
      </trkpt>
      <trkpt lat="46.10966" lon="7.6437">
        <ele>2293.8430176</ele>
        <time>2013-04-07T12:10:09Z</time>
      </trkpt>
      <trkpt lat="46.10964" lon="7.6442">
        <ele>2284.7106934</ele>
        <time>2013-04-07T12:10:25Z</time>
      </trkpt>
      <trkpt lat="46.10966" lon="7.64408">
        <ele>2282.3071289</ele>
        <time>2013-04-07T12:10:29Z</time>
      </trkpt>
      <trkpt lat="46.10932" lon="7.64389">
        <ele>2271.2519531</ele>
        <time>2013-04-07T12:10:42Z</time>
      </trkpt>
      <trkpt lat="46.10918" lon="7.644">
        <ele>2271.732666</ele>
        <time>2013-04-07T12:10:56Z</time>
      </trkpt>
      <trkpt lat="46.10906" lon="7.6441">
        <ele>2267.887207</ele>
        <time>2013-04-07T12:11:32Z</time>
      </trkpt>
      <trkpt lat="46.10865" lon="7.64417">
        <ele>2262.1193848</ele>
        <time>2013-04-07T12:11:46Z</time>
      </trkpt>
      <trkpt lat="46.10825" lon="7.64453">
        <ele>2238.0866699</ele>
        <time>2013-04-07T12:12:16Z</time>
      </trkpt>
      <trkpt lat="46.10825" lon="7.64365">
        <ele>2233.760498</ele>
        <time>2013-04-07T12:12:21Z</time>
      </trkpt>
      <trkpt lat="46.10818" lon="7.64343">
        <ele>2218.8601074</ele>
        <time>2013-04-07T12:13:08Z</time>
      </trkpt>
      <trkpt lat="46.10773" lon="7.64331">
        <ele>2215.4956055</ele>
        <time>2013-04-07T12:13:19Z</time>
      </trkpt>
      <trkpt lat="46.10801" lon="7.64313">
        <ele>2209.7275391</ele>
        <time>2013-04-07T12:13:22Z</time>
      </trkpt>
      <trkpt lat="46.10791" lon="7.64289">
        <ele>2205.8823242</ele>
        <time>2013-04-07T12:13:28Z</time>
      </trkpt>
      <trkpt lat="46.1077" lon="7.64252">
        <ele>2201.0756836</ele>
        <time>2013-04-07T12:13:33Z</time>
      </trkpt>
      <trkpt lat="46.1072" lon="7.64229">
        <ele>2196.2692871</ele>
        <time>2013-04-07T12:13:44Z</time>
      </trkpt>
      <trkpt lat="46.10709" lon="7.64204">
        <ele>2194.3464355</ele>
        <time>2013-04-07T12:13:53Z</time>
      </trkpt>
      <trkpt lat="46.10707" lon="7.64163">
        <ele>2187.1364746</ele>
        <time>2013-04-07T12:14:33Z</time>
      </trkpt>
      <trkpt lat="46.10701" lon="7.64176">
        <ele>2183.2912598</ele>
        <time>2013-04-07T12:14:36Z</time>
      </trkpt>
      <trkpt lat="46.10704" lon="7.6416">
        <ele>2181.3686523</ele>
        <time>2013-04-07T12:14:38Z</time>
      </trkpt>
      <trkpt lat="46.10685" lon="7.64139">
        <ele>2179.9267578</ele>
        <time>2013-04-07T12:14:42Z</time>
      </trkpt>
      <trkpt lat="46.10675" lon="7.64126">
        <ele>2177.5234375</ele>
        <time>2013-04-07T12:14:45Z</time>
      </trkpt>
      <trkpt lat="46.10626" lon="7.64128">
        <ele>2170.7941895</ele>
        <time>2013-04-07T12:15:01Z</time>
      </trkpt>
      <trkpt lat="46.10576" lon="7.64115">
        <ele>2159.2585449</ele>
        <time>2013-04-07T12:15:21Z</time>
      </trkpt>
      <trkpt lat="46.10553" lon="7.64113">
        <ele>2147.7226563</ele>
        <time>2013-04-07T12:15:35Z</time>
      </trkpt>
      <trkpt lat="46.10571" lon="7.64115">
        <ele>2146.2807617</ele>
        <time>2013-04-07T12:15:36Z</time>
      </trkpt>
      <trkpt lat="46.10557" lon="7.64119">
        <ele>2145.8000488</ele>
        <time>2013-04-07T12:15:42Z</time>
      </trkpt>
      <trkpt lat="46.10552" lon="7.64121">
        <ele>2143.3967285</ele>
        <time>2013-04-07T12:15:45Z</time>
      </trkpt>
      <trkpt lat="46.10554" lon="7.64101">
        <ele>2139.5512695</ele>
        <time>2013-04-07T12:15:51Z</time>
      </trkpt>
      <trkpt lat="46.10555" lon="7.64089">
        <ele>2134.744873</ele>
        <time>2013-04-07T12:16:01Z</time>
      </trkpt>
      <trkpt lat="46.10556" lon="7.64071">
        <ele>2130.4189453</ele>
        <time>2013-04-07T12:16:06Z</time>
      </trkpt>
      <trkpt lat="46.10515" lon="7.64049">
        <ele>2130.4189453</ele>
        <time>2013-04-07T12:16:14Z</time>
      </trkpt>
      <trkpt lat="46.10482" lon="7.64013">
        <ele>2126.0930176</ele>
        <time>2013-04-07T12:17:03Z</time>
      </trkpt>
      <trkpt lat="46.10429" lon="7.64005">
        <ele>2115.0378418</ele>
        <time>2013-04-07T12:17:39Z</time>
      </trkpt>
      <trkpt lat="46.10419" lon="7.64013">
        <ele>2110.2312012</ele>
        <time>2013-04-07T12:18:11Z</time>
      </trkpt>
      <trkpt lat="46.10411" lon="7.63995">
        <ele>2106.3857422</ele>
        <time>2013-04-07T12:18:25Z</time>
      </trkpt>
      <trkpt lat="46.10383" lon="7.6402">
        <ele>2090.5239258</ele>
        <time>2013-04-07T12:19:29Z</time>
      </trkpt>
      <trkpt lat="46.10391" lon="7.64063">
        <ele>2081.3916016</ele>
        <time>2013-04-07T12:19:44Z</time>
      </trkpt>
      <trkpt lat="46.10372" lon="7.64088">
        <ele>2077.065918</ele>
        <time>2013-04-07T12:20:05Z</time>
      </trkpt>
      <trkpt lat="46.10293" lon="7.64088">
        <ele>2052.0712891</ele>
        <time>2013-04-07T12:21:30Z</time>
      </trkpt>
      <trkpt lat="46.10282" lon="7.64032">
        <ele>2043.9001465</ele>
        <time>2013-04-07T12:21:51Z</time>
      </trkpt>
      <trkpt lat="46.10279" lon="7.6405">
        <ele>2036.6901855</ele>
        <time>2013-04-07T12:22:04Z</time>
      </trkpt>
      <trkpt lat="46.1026" lon="7.64028">
        <ele>2032.364502</ele>
        <time>2013-04-07T12:22:13Z</time>
      </trkpt>
      <trkpt lat="46.10227" lon="7.6404">
        <ele>2022.7512207</ele>
        <time>2013-04-07T12:22:43Z</time>
      </trkpt>
      <trkpt lat="46.10217" lon="7.6405">
        <ele>2013.1381836</ele>
        <time>2013-04-07T12:23:10Z</time>
      </trkpt>
      <trkpt lat="46.10192" lon="7.64045">
        <ele>2005.9279785</ele>
        <time>2013-04-07T12:23:58Z</time>
      </trkpt>
      <trkpt lat="46.10183" lon="7.64059">
        <ele>2002.5634766</ele>
        <time>2013-04-07T12:24:11Z</time>
      </trkpt>
      <trkpt lat="46.10155" lon="7.64046">
        <ele>1992.9501953</ele>
        <time>2013-04-07T12:24:54Z</time>
      </trkpt>
      <trkpt lat="46.10109" lon="7.64061">
        <ele>1977.088623</ele>
        <time>2013-04-07T12:25:56Z</time>
      </trkpt>
      <trkpt lat="46.10089" lon="7.6406">
        <ele>1967.9560547</ele>
        <time>2013-04-07T12:26:14Z</time>
      </trkpt>
      <trkpt lat="46.10027" lon="7.64097">
        <ele>1954.0170898</ele>
        <time>2013-04-07T12:26:54Z</time>
      </trkpt>
      <trkpt lat="46.10019" lon="7.6405">
        <ele>1951.1330566</ele>
        <time>2013-04-07T12:26:56Z</time>
      </trkpt>
      <trkpt lat="46.09949" lon="7.64047">
        <ele>1938.6359863</ele>
        <time>2013-04-07T12:27:42Z</time>
      </trkpt>
      <trkpt lat="46.09955" lon="7.6406">
        <ele>1936.232666</ele>
        <time>2013-04-07T12:27:52Z</time>
      </trkpt>
      <trkpt lat="46.09923" lon="7.64079">
        <ele>1929.0224609</ele>
        <time>2013-04-07T12:28:21Z</time>
      </trkpt>
      <trkpt lat="46.0988" lon="7.64028">
        <ele>1912.1994629</ele>
        <time>2013-04-07T12:29:05Z</time>
      </trkpt>
      <trkpt lat="46.09886" lon="7.64055">
        <ele>1908.8349609</ele>
        <time>2013-04-07T12:29:13Z</time>
      </trkpt>
      <trkpt lat="46.09888" lon="7.64021">
        <ele>1895.3764648</ele>
        <time>2013-04-07T12:30:24Z</time>
      </trkpt>
      <trkpt lat="46.09877" lon="7.64035">
        <ele>1890.0893555</ele>
        <time>2013-04-07T12:30:58Z</time>
      </trkpt>
      <trkpt lat="46.09846" lon="7.64021">
        <ele>1887.2053223</ele>
        <time>2013-04-07T12:33:03Z</time>
      </trkpt>
      <trkpt lat="46.09826" lon="7.63936">
        <ele>1892.9731445</ele>
        <time>2013-04-07T12:35:02Z</time>
      </trkpt>
      <trkpt lat="46.09826" lon="7.6388">
        <ele>1891.53125</ele>
        <time>2013-04-07T12:35:28Z</time>
      </trkpt>
      <trkpt lat="46.09814" lon="7.63873">
        <ele>1892.9731445</ele>
        <time>2013-04-07T12:35:59Z</time>
      </trkpt>
      <trkpt lat="46.09793" lon="7.63888">
        <ele>1890.0893555</ele>
        <time>2013-04-07T12:36:16Z</time>
      </trkpt>
      <trkpt lat="46.09782" lon="7.63861">
        <ele>1891.53125</ele>
        <time>2013-04-07T12:37:02Z</time>
      </trkpt>
      <trkpt lat="46.09807" lon="7.63835">
        <ele>1890.5698242</ele>
        <time>2013-04-07T12:38:02Z</time>
      </trkpt>
      <trkpt lat="46.09855" lon="7.63795">
        <ele>1884.3215332</ele>
        <time>2013-04-07T12:38:17Z</time>
      </trkpt>
      <trkpt lat="46.09877" lon="7.63746">
        <ele>1884.8022461</ele>
        <time>2013-04-07T12:38:41Z</time>
      </trkpt>
      <trkpt lat="46.09889" lon="7.63701">
        <ele>1881.4372559</ele>
        <time>2013-04-07T12:38:49Z</time>
      </trkpt>
      <trkpt lat="46.09996" lon="7.63668">
        <ele>1865.0949707</ele>
        <time>2013-04-07T12:39:04Z</time>
      </trkpt>
      <trkpt lat="46.10048" lon="7.63596">
        <ele>1857.404541</ele>
        <time>2013-04-07T12:39:14Z</time>
      </trkpt>
      <trkpt lat="46.10244" lon="7.63466">
        <ele>1872.3049316</ele>
        <time>2013-04-07T12:43:17Z</time>
      </trkpt>
      <trkpt lat="46.10323" lon="7.63436">
        <ele>1862.2109375</ele>
        <time>2013-04-07T12:44:17Z</time>
      </trkpt>
      <trkpt lat="46.10448" lon="7.63469">
        <ele>1845.8686523</ele>
        <time>2013-04-07T12:44:34Z</time>
      </trkpt>
      <trkpt lat="46.10556" lon="7.63394">
        <ele>1837.2167969</ele>
        <time>2013-04-07T12:44:56Z</time>
      </trkpt>
      <trkpt lat="46.10566" lon="7.63376">
        <ele>1837.6975098</ele>
        <time>2013-04-07T12:45:06Z</time>
      </trkpt>
      <trkpt lat="46.10571" lon="7.63352">
        <ele>1833.8520508</ele>
        <time>2013-04-07T12:45:38Z</time>
      </trkpt>
      <trkpt lat="46.10537" lon="7.63274">
        <ele>1825.2001953</ele>
        <time>2013-04-07T12:45:48Z</time>
      </trkpt>
      <trkpt lat="46.10629" lon="7.63246">
        <ele>1803.5705566</ele>
        <time>2013-04-07T12:46:03Z</time>
      </trkpt>
      <trkpt lat="46.10661" lon="7.63198">
        <ele>1797.8027344</ele>
        <time>2013-04-07T12:46:12Z</time>
      </trkpt>
      <trkpt lat="46.10682" lon="7.63191">
        <ele>1793.9575195</ele>
        <time>2013-04-07T12:46:15Z</time>
      </trkpt>
      <trkpt lat="46.10799" lon="7.63164">
        <ele>1768.9631348</ele>
        <time>2013-04-07T12:46:36Z</time>
      </trkpt>
      <trkpt lat="46.10906" lon="7.63174">
        <ele>1752.6206055</ele>
        <time>2013-04-07T12:46:58Z</time>
      </trkpt>
      <trkpt lat="46.10981" lon="7.6319">
        <ele>1736.7587891</ele>
        <time>2013-04-07T12:47:14Z</time>
      </trkpt>
      <trkpt lat="46.11269" lon="7.6316">
        <ele>1702.1513672</ele>
        <time>2013-04-07T12:48:12Z</time>
      </trkpt>
      <trkpt lat="46.1139" lon="7.63138">
        <ele>1697.8256836</ele>
        <time>2013-04-07T12:48:42Z</time>
      </trkpt>
      <trkpt lat="46.11428" lon="7.63135">
        <ele>1694.4609375</ele>
        <time>2013-04-07T12:48:52Z</time>
      </trkpt>
      <trkpt lat="46.1151" lon="7.63091">
        <ele>1693.9804688</ele>
        <time>2013-04-07T12:49:16Z</time>
      </trkpt>
      <trkpt lat="46.11639" lon="7.63161">
        <ele>1688.6931152</ele>
        <time>2013-04-07T12:49:59Z</time>
      </trkpt>
      <trkpt lat="46.11846" lon="7.6316">
        <ele>1681.9638672</ele>
        <time>2013-04-07T12:51:09Z</time>
      </trkpt>
      <trkpt lat="46.12361" lon="7.63014">
        <ele>1661.2956543</ele>
        <time>2013-04-07T12:54:07Z</time>
      </trkpt>
      <trkpt lat="46.12513" lon="7.62949">
        <ele>1660.8149414</ele>
        <time>2013-04-07T12:58:05Z</time>
      </trkpt>
      <trkpt lat="46.12538" lon="7.62939">
        <ele>1658.411377</ele>
        <time>2013-04-07T12:58:09Z</time>
      </trkpt>
      <trkpt lat="46.12704" lon="7.62962">
        <ele>1655.046875</ele>
        <time>2013-04-07T12:59:33Z</time>
      </trkpt>
      <trkpt lat="46.12724" lon="7.63008">
        <ele>1654.5661621</ele>
        <time>2013-04-07T12:59:55Z</time>
      </trkpt>
      <trkpt lat="46.12724" lon="7.63008">
        <ele>1658.8920898</ele>
        <time>2013-04-07T13:00:40Z</time>
      </trkpt>
      <trkpt lat="46.12777" lon="7.62995">
        <ele>1656.0080566</ele>
        <time>2013-04-07T13:01:58Z</time>
      </trkpt>
      <trkpt lat="46.13011" lon="7.62855">
        <ele>1652.6435547</ele>
        <time>2013-04-07T13:05:25Z</time>
      </trkpt>
      <trkpt lat="46.13187" lon="7.62688">
        <ele>1650.2404785</ele>
        <time>2013-04-07T13:08:28Z</time>
      </trkpt>
      <trkpt lat="46.13543" lon="7.62582">
        <ele>1654.0856934</ele>
        <time>2013-04-07T13:13:56Z</time>
      </trkpt>
    </trkseg>
  </trk>
</gpx>